Darstellungsparameter: Aktuell verwendete Einstellungen:
Skalierung der Graphiken ... ?
xyx+y,   Skalierungsfaktor:      Skalierung: Modus: x, Faktor: 1
Darstellungszeitraum ... ?
Vom - - bis: - -   Zeitraum: 01.09.2016 - 05.09.2016
Min/Max/Avg-Anzeige ... ?
Zeige MMA aktuell
Zeige MMA Monat
Zeige MMA alles
Zeige --A aktuell
Zeige --A Monat
Zeige --A alles
Keine MMA-Anzeige
MMA:
Keine MMA-Graphiken
MMA-Basis: 01.09.2016 - 05.09.2016
Quicknavigation für Darstellung... ?
Tage:      1T, 2T, 3T, 5T -1T -2T -3T -5T +1T +2T +3T +5T
Wochen: 1W, 2W, 3W -1W -2W -3W +1W +2W +3W
Monate: 1M, 3M, 6M -1M -3M -6M +1M +3M +6M
Jahre:    1J, 3J, 5J, 10J -1J -3J -5J -10J +1J +3J +5J +10J
Nutze für die Darstellung ... ?
Originaldaten oder Mittelwerte auf ...
Stundenbasis Tagesbasis Wochenbasis
Monatsbasis Jahresbasis      Datenbasis: Original-Daten
Darstellen als:
Statistik (Auto) Statistik J:M      Darstellung:
Zur Graphik,    zurück zur Übersicht aller Sensoren.
 
Tabellarische Datenbersicht: ?
 
Sensor: Nr:Datum:Temp:Feuchte:Taupunkt:
Aussen-T/F 1 01-09-2016 00:00:00 19.1 C 78 % 15.18 C
2 01-09-2016 00:05:00 19 C 79 % 15.28 C
3 01-09-2016 00:10:00 18.9 C 79 % 15.18 C
4 01-09-2016 00:15:00 18.8 C 79 % 15.08 C
5 01-09-2016 00:20:00 18.7 C 79 % 14.99 C
6 01-09-2016 00:25:00 18.7 C 79 % 14.99 C
7 01-09-2016 00:30:00 18.6 C 79 % 14.89 C
8 01-09-2016 00:35:00 18.5 C 79 % 14.79 C
9 01-09-2016 00:40:00 18.4 C 79 % 14.69 C
10 01-09-2016 00:45:00 18.4 C 79 % 14.69 C
11 01-09-2016 00:50:00 18.4 C 79 % 14.69 C
12 01-09-2016 00:55:00 18.3 C 80 % 14.79 C
13 01-09-2016 01:00:00 18.3 C 80 % 14.79 C
14 01-09-2016 01:05:00 18.2 C 81 % 14.89 C
15 01-09-2016 01:10:00 18.1 C 81 % 14.79 C
16 01-09-2016 01:15:00 17.8 C 82 % 14.69 C
17 01-09-2016 01:20:00 17.7 C 82 % 14.59 C
18 01-09-2016 01:25:00 17.5 C 83 % 14.58 C
19 01-09-2016 01:30:00 17.3 C 82 % 14.2 C
20 01-09-2016 01:35:00 17.1 C 83 % 14.19 C
21 01-09-2016 01:40:00 17 C 84 % 14.28 C
22 01-09-2016 01:45:00 16.9 C 85 % 14.36 C
23 01-09-2016 01:50:00 16.9 C 86 % 14.54 C
24 01-09-2016 01:55:00 16.9 C 86 % 14.54 C
25 01-09-2016 02:00:00 16.9 C 86 % 14.54 C
Sensor: Nr:Datum:Temp:Feuchte:Taupunkt:
Aussen-T/F 26 01-09-2016 02:05:00 16.9 C 87 % 14.72 C
27 01-09-2016 02:10:00 16.9 C 86 % 14.54 C
28 01-09-2016 02:15:00 16.8 C 86 % 14.45 C
29 01-09-2016 02:20:00 16.8 C 87 % 14.62 C
30 01-09-2016 02:25:00 16.7 C 87 % 14.53 C
31 01-09-2016 02:30:00 16.7 C 87 % 14.53 C
32 01-09-2016 02:35:00 16.7 C 87 % 14.53 C
33 01-09-2016 02:40:00 16.6 C 87 % 14.43 C
34 01-09-2016 02:45:00 16.6 C 87 % 14.43 C
35 01-09-2016 02:50:00 16.6 C 87 % 14.43 C
36 01-09-2016 02:55:00 16.6 C 87 % 14.43 C
37 01-09-2016 03:00:00 16.6 C 87 % 14.43 C
38 01-09-2016 03:05:00 16.6 C 87 % 14.43 C
39 01-09-2016 03:10:00 16.6 C 87 % 14.43 C
40 01-09-2016 03:15:00 16.6 C 87 % 14.43 C
41 01-09-2016 03:20:00 16.5 C 87 % 14.33 C
42 01-09-2016 03:25:00 16.5 C 87 % 14.33 C
43 01-09-2016 03:30:00 16.6 C 88 % 14.6 C
44 01-09-2016 03:35:00 16.6 C 88 % 14.6 C
45 01-09-2016 03:40:00 16.6 C 88 % 14.6 C
46 01-09-2016 03:45:00 16.6 C 87 % 14.43 C
47 01-09-2016 03:50:00 16.5 C 87 % 14.33 C
48 01-09-2016 03:55:00 16.4 C 87 % 14.23 C
49 01-09-2016 04:00:00 16.4 C 87 % 14.23 C
50 01-09-2016 04:05:00 16.3 C 87 % 14.13 C
Sensor: Nr:Datum:Temp:Feuchte:Taupunkt:
Aussen-T/F 51 01-09-2016 04:10:00 16.2 C 88 % 14.21 C
52 01-09-2016 04:15:00 16.1 C 88 % 14.11 C
53 01-09-2016 04:20:00 16 C 88 % 14.01 C
54 01-09-2016 04:25:00 16 C 89 % 14.19 C
55 01-09-2016 04:30:00 16 C 89 % 14.19 C
56 01-09-2016 04:35:00 16 C 89 % 14.19 C
57 01-09-2016 04:40:00 16 C 89 % 14.19 C
58 01-09-2016 04:45:00 15.9 C 89 % 14.09 C
59 01-09-2016 04:50:00 15.8 C 89 % 13.99 C
60 01-09-2016 04:55:00 15.8 C 89 % 13.99 C
61 01-09-2016 05:00:00 15.7 C 89 % 13.89 C
62 01-09-2016 05:05:00 15.7 C 89 % 13.89 C
63 01-09-2016 05:10:00 15.7 C 89 % 13.89 C
64 01-09-2016 05:15:00 15.7 C 90 % 14.06 C
65 01-09-2016 05:20:00 15.7 C 89 % 13.89 C
66 01-09-2016 05:25:00 15.6 C 89 % 13.79 C
67 01-09-2016 05:30:00 15.4 C 89 % 13.6 C
68 01-09-2016 05:35:00 15.4 C 90 % 13.77 C
69 01-09-2016 05:40:00 15.4 C 90 % 13.77 C
70 01-09-2016 05:45:00 15.4 C 90 % 13.77 C
71 01-09-2016 05:50:00 15.4 C 90 % 13.77 C
72 01-09-2016 05:55:00 15.3 C 90 % 13.67 C
73 01-09-2016 06:00:00 15.3 C 90 % 13.67 C
74 01-09-2016 06:05:00 15.2 C 90 % 13.57 C
75 01-09-2016 06:10:00 15.1 C 90 % 13.47 C
Sensor: Nr:Datum:Temp:Feuchte:Taupunkt:
Aussen-T/F 76 01-09-2016 06:15:00 15 C 90 % 13.37 C
77 01-09-2016 06:20:00 14.8 C 90 % 13.18 C
78 01-09-2016 06:25:00 14.7 C 90 % 13.08 C
79 01-09-2016 06:30:00 14.6 C 90 % 12.98 C
80 01-09-2016 06:35:00 14.4 C 90 % 12.78 C
81 01-09-2016 06:40:00 14.3 C 90 % 12.68 C
82 01-09-2016 06:45:00 14.3 C 91 % 12.85 C
83 01-09-2016 06:50:00 14.2 C 91 % 12.75 C
84 01-09-2016 06:55:00 14.2 C 91 % 12.75 C
85 01-09-2016 07:00:00 14.1 C 91 % 12.65 C
86 01-09-2016 07:05:00 14.1 C 91 % 12.65 C
87 01-09-2016 07:10:00 14 C 91 % 12.56 C
88 01-09-2016 07:15:00 14 C 92 % 12.72 C
89 01-09-2016 07:20:00 14 C 92 % 12.72 C
90 01-09-2016 07:25:00 13.9 C 92 % 12.62 C
91 01-09-2016 07:30:00 13.9 C 92 % 12.62 C
92 01-09-2016 07:35:00 13.9 C 92 % 12.62 C
93 01-09-2016 07:40:00 13.9 C 92 % 12.62 C
94 01-09-2016 07:45:00 14 C 93 % 12.89 C
95 01-09-2016 07:50:00 14.1 C 93 % 12.99 C
96 01-09-2016 07:55:00 14.2 C 93 % 13.08 C
97 01-09-2016 08:00:00 14.3 C 93 % 13.18 C
98 01-09-2016 08:05:00 14.3 C 93 % 13.18 C
99 01-09-2016 08:10:00 14.4 C 93 % 13.28 C
100 01-09-2016 08:15:00 14.6 C 93 % 13.48 C
Sensor: Nr:Datum:Temp:Feuchte:Taupunkt:
Aussen-T/F 101 01-09-2016 08:20:00 14.7 C 93 % 13.58 C
102 01-09-2016 08:25:00 14.8 C 94 % 13.84 C
103 01-09-2016 08:30:00 14.9 C 94 % 13.94 C
104 01-09-2016 08:35:00 15 C 93 % 13.88 C
105 01-09-2016 08:40:00 15.1 C 93 % 13.98 C
106 01-09-2016 08:45:00 15.1 C 93 % 13.98 C
107 01-09-2016 08:50:00 15.2 C 93 % 14.08 C
108 01-09-2016 08:55:00 15.2 C 93 % 14.08 C
109 01-09-2016 09:00:00 15.3 C 93 % 14.18 C
110 01-09-2016 09:05:00 15.4 C 93 % 14.27 C
111 01-09-2016 09:10:00 15.4 C 93 % 14.27 C
112 01-09-2016 09:15:00 15.6 C 93 % 14.47 C
113 01-09-2016 09:20:00 15.8 C 93 % 14.67 C
114 01-09-2016 09:25:00 15.8 C 93 % 14.67 C
115 01-09-2016 09:30:00 15.9 C 93 % 14.77 C
116 01-09-2016 09:35:00 16.1 C 93 % 14.97 C
117 01-09-2016 09:40:00 16.2 C 92 % 14.9 C
118 01-09-2016 09:45:00 16.3 C 92 % 15 C
119 01-09-2016 09:50:00 16.4 C 92 % 15.1 C
120 01-09-2016 09:55:00 16.6 C 91 % 15.13 C
121 01-09-2016 10:00:00 16.7 C 91 % 15.22 C
122 01-09-2016 10:05:00 16.9 C 90 % 15.25 C
123 01-09-2016 10:10:00 17.2 C 88 % 15.2 C
124 01-09-2016 10:15:00 17.4 C 88 % 15.39 C
125 01-09-2016 10:20:00 17.7 C 88 % 15.69 C
Sensor: Nr:Datum:Temp:Feuchte:Taupunkt:
Aussen-T/F 126 01-09-2016 10:25:00 17.8 C 86 % 15.43 C
127 01-09-2016 10:30:00 17.9 C 85 % 15.34 C
128 01-09-2016 10:35:00 18.1 C 85 % 15.54 C
129 01-09-2016 10:40:00 18.2 C 85 % 15.64 C
130 01-09-2016 10:45:00 18.3 C 84 % 15.55 C
131 01-09-2016 10:50:00 18.5 C 82 % 15.37 C
132 01-09-2016 10:55:00 18.7 C 82 % 15.57 C
133 01-09-2016 11:00:00 18.8 C 81 % 15.47 C
134 01-09-2016 11:05:00 19 C 81 % 15.67 C
135 01-09-2016 11:10:00 19.1 C 78 % 15.18 C
136 01-09-2016 11:15:00 19.2 C 79 % 15.47 C
137 01-09-2016 11:20:00 19.3 C 79 % 15.57 C
138 01-09-2016 11:25:00 19.6 C 78 % 15.66 C
139 01-09-2016 11:30:00 19.7 C 79 % 15.96 C
140 01-09-2016 11:35:00 19.8 C 78 % 15.85 C
141 01-09-2016 11:40:00 20 C 76 % 15.64 C
142 01-09-2016 11:45:00 20.3 C 74 % 15.51 C
143 01-09-2016 11:50:00 20.4 C 72 % 15.18 C
144 01-09-2016 11:55:00 20.6 C 73 % 15.59 C
145 01-09-2016 12:00:00 20.8 C 73 % 15.78 C
146 01-09-2016 12:05:00 20.9 C 74 % 16.09 C
147 01-09-2016 12:10:00 20.9 C 73 % 15.88 C
148 01-09-2016 12:15:00 20.9 C 74 % 16.09 C
149 01-09-2016 12:20:00 20.9 C 74 % 16.09 C
150 01-09-2016 12:25:00 20.9 C 72 % 15.66 C
Sensor: Nr:Datum:Temp:Feuchte:Taupunkt:
Aussen-T/F 151 01-09-2016 12:30:00 21 C 70 % 15.32 C
152 01-09-2016 12:35:00 21.1 C 70 % 15.42 C
153 01-09-2016 12:40:00 21.2 C 72 % 15.95 C
154 01-09-2016 12:45:00 21.2 C 73 % 16.17 C
155 01-09-2016 12:50:00 21.2 C 70 % 15.51 C
156 01-09-2016 12:55:00 21.3 C 69 % 15.38 C
157 01-09-2016 13:00:00 21.5 C 68 % 15.35 C
158 01-09-2016 13:05:00 21.7 C 68 % 15.54 C
159 01-09-2016 13:10:00 21.8 C 68 % 15.63 C
160 01-09-2016 13:15:00 22 C 67 % 15.59 C
161 01-09-2016 13:20:00 22.1 C 66 % 15.45 C
162 01-09-2016 13:25:00 22.2 C 66 % 15.55 C
163 01-09-2016 13:30:00 22.3 C 66 % 15.64 C
164 01-09-2016 13:35:00 22.4 C 66 % 15.74 C
165 01-09-2016 13:40:00 22.5 C 65 % 15.59 C
166 01-09-2016 13:45:00 22.7 C 65 % 15.78 C
167 01-09-2016 13:50:00 22.9 C 64 % 15.73 C
168 01-09-2016 13:55:00 23 C 64 % 15.82 C
169 01-09-2016 14:00:00 23.2 C 63 % 15.77 C
170 01-09-2016 14:05:00 23.3 C 62 % 15.61 C
171 01-09-2016 14:10:00 23.4 C 62 % 15.71 C
172 01-09-2016 14:15:00 23.5 C 62 % 15.8 C
173 01-09-2016 14:20:00 23.7 C 61 % 15.73 C
174 01-09-2016 14:25:00 23.9 C 61 % 15.92 C
175 01-09-2016 14:30:00 24 C 60 % 15.76 C
Sensor: Nr:Datum:Temp:Feuchte:Taupunkt:
Aussen-T/F 176 01-09-2016 14:35:00 24.1 C 60 % 15.85 C
177 01-09-2016 14:40:00 24.1 C 60 % 15.85 C
178 01-09-2016 14:45:00 24.2 C 59 % 15.68 C
179 01-09-2016 14:50:00 24.2 C 59 % 15.68 C
180 01-09-2016 14:55:00 24.3 C 60 % 16.04 C
181 01-09-2016 15:00:00 24.4 C 59 % 15.87 C
182 01-09-2016 15:05:00 24.6 C 56 % 15.24 C
183 01-09-2016 15:10:00 24.6 C 57 % 15.52 C
184 01-09-2016 15:15:00 24.7 C 57 % 15.61 C
185 01-09-2016 15:20:00 24.8 C 55 % 15.15 C
186 01-09-2016 15:25:00 24.9 C 57 % 15.8 C
187 01-09-2016 15:30:00 24.9 C 56 % 15.52 C
188 01-09-2016 15:35:00 25 C 56 % 15.61 C
189 01-09-2016 15:40:00 25.1 C 55 % 15.43 C
190 01-09-2016 15:45:00 25.2 C 55 % 15.52 C
191 01-09-2016 15:50:00 25.3 C 54 % 15.33 C
192 01-09-2016 15:55:00 25.3 C 55 % 15.61 C
193 01-09-2016 16:00:00 25.3 C 53 % 15.03 C
194 01-09-2016 16:05:00 25.4 C 54 % 15.42 C
195 01-09-2016 16:10:00 25.6 C 54 % 15.6 C
196 01-09-2016 16:15:00 25.7 C 53 % 15.4 C
197 01-09-2016 16:20:00 25.8 C 53 % 15.5 C
198 01-09-2016 16:25:00 25.8 C 52 % 15.2 C
199 01-09-2016 16:30:00 25.8 C 52 % 15.2 C
200 01-09-2016 16:35:00 25.8 C 56 % 16.36 C
Sensor: Nr:Datum:Temp:Feuchte:Taupunkt:
Aussen-T/F 201 01-09-2016 16:40:00 25.7 C 52 % 15.11 C
202 01-09-2016 16:45:00 25.8 C 53 % 15.5 C
203 01-09-2016 16:50:00 26.1 C 53 % 15.77 C
204 01-09-2016 16:55:00 26.5 C 51 % 15.54 C
205 01-09-2016 17:00:00 26.4 C 51 % 15.45 C
206 01-09-2016 17:05:00 26.3 C 50 % 15.05 C
207 01-09-2016 17:10:00 26 C 51 % 15.08 C
208 01-09-2016 17:15:00 26 C 51 % 15.08 C
209 01-09-2016 17:20:00 26.1 C 50 % 14.87 C
210 01-09-2016 17:25:00 25.9 C 51 % 14.99 C
211 01-09-2016 17:30:00 25.7 C 51 % 14.81 C
212 01-09-2016 17:35:00 25.7 C 52 % 15.11 C
213 01-09-2016 17:40:00 25.7 C 52 % 15.11 C
214 01-09-2016 17:45:00 25.7 C 57 % 16.54 C
215 01-09-2016 17:50:00 25.5 C 59 % 16.9 C
216 01-09-2016 17:55:00 25.1 C 62 % 17.31 C
217 01-09-2016 18:00:00 24.6 C 60 % 16.32 C
218 01-09-2016 18:05:00 24.4 C 57 % 15.33 C
219 01-09-2016 18:10:00 24.7 C 54 % 14.77 C
220 01-09-2016 18:15:00 25.2 C 53 % 14.94 C
221 01-09-2016 18:20:00 25.7 C 53 % 15.4 C
222 01-09-2016 18:25:00 26 C 51 % 15.08 C
223 01-09-2016 18:30:00 26.1 C 50 % 14.87 C
224 01-09-2016 18:35:00 26.2 C 50 % 14.96 C
225 01-09-2016 18:40:00 25.9 C 50 % 14.68 C
Sensor: Nr:Datum:Temp:Feuchte:Taupunkt:
Aussen-T/F 226 01-09-2016 18:45:00 25.6 C 50 % 14.41 C
227 01-09-2016 18:50:00 25.2 C 52 % 14.65 C
228 01-09-2016 18:55:00 24.9 C 53 % 14.66 C
229 01-09-2016 19:00:00 24.7 C 55 % 15.05 C
230 01-09-2016 19:05:00 24.7 C 55 % 15.05 C
231 01-09-2016 19:10:00 24.8 C 55 % 15.15 C
232 01-09-2016 19:15:00 24.9 C 55 % 15.24 C
233 01-09-2016 19:20:00 24.9 C 56 % 15.52 C
234 01-09-2016 19:25:00 24.8 C 56 % 15.43 C
235 01-09-2016 19:30:00 24.5 C 55 % 14.87 C
236 01-09-2016 19:35:00 24.3 C 56 % 14.96 C
237 01-09-2016 19:40:00 24.2 C 56 % 14.87 C
238 01-09-2016 19:45:00 24.1 C 57 % 15.05 C
239 01-09-2016 19:50:00 23.9 C 58 % 15.14 C
240 01-09-2016 19:55:00 23.7 C 60 % 15.48 C
241 01-09-2016 20:00:00 23.3 C 59 % 14.84 C
242 01-09-2016 20:05:00 23.1 C 62 % 15.42 C
243 01-09-2016 20:10:00 22.8 C 61 % 14.89 C
244 01-09-2016 20:15:00 22.4 C 63 % 15.01 C
245 01-09-2016 20:20:00 22.1 C 64 % 14.97 C
246 01-09-2016 20:25:00 22 C 65 % 15.12 C
247 01-09-2016 20:30:00 21.9 C 65 % 15.02 C
248 01-09-2016 20:35:00 21.9 C 65 % 15.02 C
249 01-09-2016 20:40:00 22 C 65 % 15.12 C
250 01-09-2016 20:45:00 22 C 66 % 15.36 C
Sensor: Nr:Datum:Temp:Feuchte:Taupunkt:
Aussen-T/F 251 01-09-2016 20:50:00 22 C 67 % 15.59 C
252 01-09-2016 20:55:00 21.9 C 68 % 15.73 C
253 01-09-2016 21:00:00 21.7 C 68 % 15.54 C
254 01-09-2016 21:05:00 21.5 C 69 % 15.57 C
255 01-09-2016 21:10:00 21.3 C 70 % 15.61 C
256 01-09-2016 21:15:00 21 C 71 % 15.54 C
257 01-09-2016 21:20:00 20.8 C 72 % 15.57 C
258 01-09-2016 21:25:00 20.4 C 74 % 15.61 C
259 01-09-2016 21:30:00 20.1 C 75 % 15.53 C
260 01-09-2016 21:35:00 19.8 C 76 % 15.45 C
261 01-09-2016 21:40:00 19.6 C 77 % 15.46 C
262 01-09-2016 21:45:00 19.4 C 78 % 15.47 C
263 01-09-2016 21:50:00 19.4 C 78 % 15.47 C
264 01-09-2016 21:55:00 19.4 C 78 % 15.47 C
265 01-09-2016 22:00:00 19.4 C 79 % 15.66 C
266 01-09-2016 22:05:00 19.3 C 79 % 15.57 C
267 01-09-2016 22:10:00 19.2 C 79 % 15.47 C
268 01-09-2016 22:15:00 19.1 C 80 % 15.57 C
269 01-09-2016 22:20:00 18.9 C 80 % 15.38 C
270 01-09-2016 22:25:00 18.9 C 80 % 15.38 C
271 01-09-2016 22:30:00 18.8 C 80 % 15.28 C
272 01-09-2016 22:35:00 18.7 C 81 % 15.37 C
273 01-09-2016 22:40:00 18.7 C 81 % 15.37 C
274 01-09-2016 22:45:00 18.6 C 81 % 15.28 C
275 01-09-2016 22:50:00 18.5 C 81 % 15.18 C
Sensor: Nr:Datum:Temp:Feuchte:Taupunkt:
Aussen-T/F 276 01-09-2016 22:55:00 18.4 C 82 % 15.27 C
277 01-09-2016 23:00:00 18.4 C 83 % 15.46 C
278 01-09-2016 23:05:00 18.4 C 83 % 15.46 C
279 01-09-2016 23:10:00 18.4 C 83 % 15.46 C
280 01-09-2016 23:15:00 18.4 C 83 % 15.46 C
281 01-09-2016 23:20:00 18.3 C 82 % 15.17 C
282 01-09-2016 23:25:00 18.3 C 82 % 15.17 C
283 01-09-2016 23:30:00 18.2 C 82 % 15.08 C
284 01-09-2016 23:35:00 18.2 C 82 % 15.08 C
285 01-09-2016 23:40:00 18.1 C 83 % 15.17 C
286 01-09-2016 23:45:00 18 C 83 % 15.07 C
287 01-09-2016 23:50:00 17.9 C 83 % 14.97 C
288 01-09-2016 23:55:00 17.7 C 84 % 14.96 C
289 02-09-2016 00:00:00 17.7 C 84 % 14.96 C
290 02-09-2016 00:05:00 17.6 C 85 % 15.05 C
291 02-09-2016 00:10:00 17.5 C 85 % 14.95 C
292 02-09-2016 00:15:00 17.5 C 85 % 14.95 C
293 02-09-2016 00:20:00 17.4 C 85 % 14.85 C
294 02-09-2016 00:25:00 17.4 C 85 % 14.85 C
295 02-09-2016 00:30:00 17.4 C 85 % 14.85 C
296 02-09-2016 00:35:00 17.3 C 85 % 14.76 C
297 02-09-2016 00:40:00 17.2 C 85 % 14.66 C
298 02-09-2016 00:45:00 17.1 C 85 % 14.56 C
299 02-09-2016 00:50:00 16.9 C 86 % 14.54 C
300 02-09-2016 00:55:00 16.8 C 86 % 14.45 C
Sensor: Nr:Datum:Temp:Feuchte:Taupunkt:
Aussen-T/F 301 02-09-2016 01:00:00 16.7 C 86 % 14.35 C
302 02-09-2016 01:05:00 16.6 C 87 % 14.43 C
303 02-09-2016 01:10:00 16.6 C 88 % 14.6 C
304 02-09-2016 01:15:00 16.5 C 88 % 14.51 C
305 02-09-2016 01:20:00 16.4 C 88 % 14.41 C
306 02-09-2016 01:25:00 16.4 C 88 % 14.41 C
307 02-09-2016 01:30:00 16.3 C 88 % 14.31 C
308 02-09-2016 01:35:00 16.2 C 88 % 14.21 C
309 02-09-2016 01:40:00 16.2 C 88 % 14.21 C
310 02-09-2016 01:45:00 16 C 89 % 14.19 C
311 02-09-2016 01:50:00 15.9 C 88 % 13.92 C
312 02-09-2016 01:55:00 15.8 C 89 % 13.99 C
313 02-09-2016 02:00:00 15.7 C 89 % 13.89 C
314 02-09-2016 02:05:00 15.6 C 90 % 13.97 C
315 02-09-2016 02:10:00 15.6 C 90 % 13.97 C
316 02-09-2016 02:15:00 15.6 C 90 % 13.97 C
317 02-09-2016 02:20:00 15.5 C 90 % 13.87 C
318 02-09-2016 02:25:00 15.4 C 90 % 13.77 C
319 02-09-2016 02:30:00 15.3 C 91 % 13.84 C
320 02-09-2016 02:35:00 15.3 C 90 % 13.67 C
321 02-09-2016 02:40:00 15.1 C 90 % 13.47 C
322 02-09-2016 02:45:00 15.1 C 91 % 13.64 C
323 02-09-2016 02:50:00 15.1 C 91 % 13.64 C
324 02-09-2016 02:55:00 15.1 C 92 % 13.81 C
325 02-09-2016 03:00:00 15 C 91 % 13.54 C
Sensor: Nr:Datum:Temp:Feuchte:Taupunkt:
Aussen-T/F 326 02-09-2016 03:05:00 14.9 C 91 % 13.44 C
327 02-09-2016 03:10:00 14.8 C 92 % 13.51 C
328 02-09-2016 03:15:00 14.8 C 92 % 13.51 C
329 02-09-2016 03:20:00 14.8 C 92 % 13.51 C
330 02-09-2016 03:25:00 14.9 C 93 % 13.78 C
331 02-09-2016 03:30:00 14.8 C 92 % 13.51 C
332 02-09-2016 03:35:00 14.8 C 92 % 13.51 C
333 02-09-2016 03:40:00 14.7 C 92 % 13.41 C
334 02-09-2016 03:45:00 14.7 C 92 % 13.41 C
335 02-09-2016 03:50:00 14.6 C 92 % 13.32 C
336 02-09-2016 03:55:00 14.5 C 92 % 13.22 C
337 02-09-2016 04:00:00 14.5 C 93 % 13.38 C
338 02-09-2016 04:05:00 14.4 C 93 % 13.28 C
339 02-09-2016 04:10:00 14.4 C 93 % 13.28 C
340 02-09-2016 04:15:00 14.4 C 93 % 13.28 C
341 02-09-2016 04:20:00 14.3 C 93 % 13.18 C
342 02-09-2016 04:25:00 14.2 C 93 % 13.08 C
343 02-09-2016 04:30:00 14.2 C 93 % 13.08 C
344 02-09-2016 04:35:00 14.1 C 93 % 12.99 C
345 02-09-2016 04:40:00 14.1 C 93 % 12.99 C
346 02-09-2016 04:45:00 14.1 C 93 % 12.99 C
347 02-09-2016 04:50:00 14.1 C 93 % 12.99 C
348 02-09-2016 04:55:00 14 C 93 % 12.89 C
349 02-09-2016 05:00:00 13.9 C 93 % 12.79 C
350 02-09-2016 05:05:00 13.9 C 93 % 12.79 C
Sensor: Nr:Datum:Temp:Feuchte:Taupunkt:
Aussen-T/F 351 02-09-2016 05:10:00 13.9 C 94 % 12.95 C
352 02-09-2016 05:15:00 13.9 C 93 % 12.79 C
353 02-09-2016 05:20:00 13.8 C 93 % 12.69 C
354 02-09-2016 05:25:00 13.7 C 94 % 12.75 C
355 02-09-2016 05:30:00 13.7 C 94 % 12.75 C
356 02-09-2016 05:35:00 13.7 C 93 % 12.59 C
357 02-09-2016 05:40:00 13.6 C 94 % 12.65 C
358 02-09-2016 05:45:00 13.6 C 93 % 12.49 C
359 02-09-2016 05:50:00 13.5 C 94 % 12.55 C
360 02-09-2016 05:55:00 13.4 C 94 % 12.45 C
361 02-09-2016 06:00:00 13.4 C 94 % 12.45 C
362 02-09-2016 06:05:00 13.4 C 94 % 12.45 C
363 02-09-2016 06:10:00 13.4 C 94 % 12.45 C
364 02-09-2016 06:15:00 13.3 C 94 % 12.36 C
365 02-09-2016 06:20:00 13.3 C 94 % 12.36 C
366 02-09-2016 06:25:00 13.3 C 94 % 12.36 C
367 02-09-2016 06:30:00 13.3 C 94 % 12.36 C
368 02-09-2016 06:35:00 13.3 C 94 % 12.36 C
369 02-09-2016 06:40:00 13.2 C 94 % 12.26 C
370 02-09-2016 06:45:00 13.1 C 94 % 12.16 C
371 02-09-2016 06:50:00 13.1 C 94 % 12.16 C
372 02-09-2016 06:55:00 13 C 94 % 12.06 C
373 02-09-2016 07:00:00 13.1 C 94 % 12.16 C
374 02-09-2016 07:05:00 13 C 94 % 12.06 C
375 02-09-2016 07:10:00 13 C 94 % 12.06 C
Sensor: Nr:Datum:Temp:Feuchte:Taupunkt:
Aussen-T/F 376 02-09-2016 07:15:00 13 C 95 % 12.22 C
377 02-09-2016 07:20:00 13.1 C 95 % 12.32 C
378 02-09-2016 07:25:00 13.1 C 95 % 12.32 C
379 02-09-2016 07:30:00 13.2 C 95 % 12.42 C
380 02-09-2016 07:35:00 13.3 C 95 % 12.52 C
381 02-09-2016 07:40:00 13.4 C 95 % 12.62 C
382 02-09-2016 07:45:00 13.4 C 95 % 12.62 C
383 02-09-2016 07:50:00 13.6 C 95 % 12.81 C
384 02-09-2016 07:55:00 13.6 C 95 % 12.81 C
385 02-09-2016 08:00:00 13.7 C 95 % 12.91 C
386 02-09-2016 08:05:00 13.7 C 95 % 12.91 C
387 02-09-2016 08:10:00 13.7 C 95 % 12.91 C
388 02-09-2016 08:15:00 13.7 C 95 % 12.91 C
389 02-09-2016 08:20:00 13.7 C 95 % 12.91 C
390 02-09-2016 08:25:00 13.7 C 95 % 12.91 C
391 02-09-2016 08:30:00 13.7 C 95 % 12.91 C
392 02-09-2016 08:35:00 13.7 C 95 % 12.91 C
393 02-09-2016 08:40:00 13.8 C 95 % 13.01 C
394 02-09-2016 08:45:00 13.8 C 95 % 13.01 C
395 02-09-2016 08:50:00 13.8 C 95 % 13.01 C
396 02-09-2016 08:55:00 13.8 C 95 % 13.01 C
397 02-09-2016 09:00:00 13.8 C 95 % 13.01 C
398 02-09-2016 09:05:00 13.9 C 95 % 13.11 C
399 02-09-2016 09:10:00 13.9 C 95 % 13.11 C
400 02-09-2016 09:15:00 14 C 95 % 13.21 C
Sensor: Nr:Datum:Temp:Feuchte:Taupunkt:
Aussen-T/F 401 02-09-2016 09:20:00 14.1 C 95 % 13.31 C
402 02-09-2016 09:25:00 14.2 C 95 % 13.41 C
403 02-09-2016 09:30:00 14.2 C 95 % 13.41 C
404 02-09-2016 09:35:00 14.3 C 95 % 13.51 C
405 02-09-2016 09:40:00 14.4 C 96 % 13.77 C
406 02-09-2016 09:45:00 14.6 C 95 % 13.81 C
407 02-09-2016 09:50:00 14.7 C 95 % 13.91 C
408 02-09-2016 09:55:00 14.8 C 96 % 14.17 C
409 02-09-2016 10:00:00 14.9 C 96 % 14.27 C
410 02-09-2016 10:05:00 15 C 95 % 14.21 C
411 02-09-2016 10:10:00 15.2 C 96 % 14.57 C
412 02-09-2016 10:15:00 15.3 C 96 % 14.67 C
413 02-09-2016 10:20:00 15.4 C 96 % 14.77 C
414 02-09-2016 10:25:00 15.5 C 96 % 14.86 C
415 02-09-2016 10:30:00 15.6 C 95 % 14.8 C
416 02-09-2016 10:35:00 15.8 C 95 % 15 C
417 02-09-2016 10:40:00 16.1 C 95 % 15.3 C
418 02-09-2016 10:45:00 16.2 C 95 % 15.4 C
419 02-09-2016 10:50:00 16.4 C 95 % 15.6 C
420 02-09-2016 10:55:00 16.7 C 95 % 15.9 C
421 02-09-2016 11:00:00 16.8 C 95 % 15.99 C
422 02-09-2016 11:05:00 17 C 94 % 16.03 C
423 02-09-2016 11:10:00 17.3 C 94 % 16.33 C
424 02-09-2016 11:15:00 17.5 C 93 % 16.36 C
425 02-09-2016 11:20:00 17.7 C 92 % 16.38 C
Sensor: Nr:Datum:Temp:Feuchte:Taupunkt:
Aussen-T/F 426 02-09-2016 11:25:00 18 C 91 % 16.51 C
427 02-09-2016 11:30:00 18.3 C 90 % 16.63 C
428 02-09-2016 11:35:00 18.6 C 89 % 16.75 C
429 02-09-2016 11:40:00 18.9 C 86 % 16.51 C
430 02-09-2016 11:45:00 19.4 C 81 % 16.06 C
431 02-09-2016 11:50:00 19.8 C 79 % 16.05 C
432 02-09-2016 11:55:00 20.1 C 81 % 16.74 C
433 02-09-2016 12:00:00 20.3 C 79 % 16.54 C
434 02-09-2016 12:05:00 20.5 C 75 % 15.92 C
435 02-09-2016 12:10:00 20.7 C 77 % 16.52 C
436 02-09-2016 12:15:00 20.8 C 77 % 16.62 C
437 02-09-2016 12:20:00 21.1 C 73 % 16.07 C
438 02-09-2016 12:25:00 21.4 C 71 % 15.93 C
439 02-09-2016 12:30:00 21.8 C 70 % 16.09 C
440 02-09-2016 12:35:00 22 C 72 % 16.72 C
441 02-09-2016 12:40:00 22.1 C 71 % 16.6 C
442 02-09-2016 12:45:00 22.2 C 67 % 15.78 C
443 02-09-2016 12:50:00 22.3 C 72 % 17.01 C
444 02-09-2016 12:55:00 22.5 C 67 % 16.07 C
445 02-09-2016 13:00:00 22.6 C 65 % 15.69 C
446 02-09-2016 13:05:00 22.6 C 73 % 17.51 C
447 02-09-2016 13:10:00 22.6 C 71 % 17.07 C
448 02-09-2016 13:15:00 22.4 C 66 % 15.74 C
449 02-09-2016 13:20:00 22.4 C 65 % 15.5 C
450 02-09-2016 13:25:00 22.4 C 66 % 15.74 C
Sensor: Nr:Datum:Temp:Feuchte:Taupunkt:
Aussen-T/F 451 02-09-2016 13:30:00 22.5 C 68 % 16.3 C
452 02-09-2016 13:35:00 22.6 C 62 % 14.95 C
453 02-09-2016 13:40:00 22.7 C 62 % 15.05 C
454 02-09-2016 13:45:00 22.9 C 59 % 14.47 C
455 02-09-2016 13:50:00 23.2 C 59 % 14.75 C
456 02-09-2016 13:55:00 23.3 C 64 % 16.11 C
457 02-09-2016 14:00:00 23.4 C 65 % 16.45 C
458 02-09-2016 14:05:00 23.4 C 62 % 15.71 C
459 02-09-2016 14:10:00 23.5 C 62 % 15.8 C
460 02-09-2016 14:15:00 23.6 C 60 % 15.38 C
461 02-09-2016 14:20:00 23.7 C 58 % 14.95 C
462 02-09-2016 14:25:00 23.9 C 64 % 16.68 C
463 02-09-2016 14:30:00 23.9 C 58 % 15.14 C
464 02-09-2016 14:35:00 24 C 59 % 15.5 C
465 02-09-2016 14:40:00 24.1 C 58 % 15.32 C
466 02-09-2016 14:45:00 24.3 C 59 % 15.78 C
467 02-09-2016 14:50:00 24.4 C 58 % 15.6 C
468 02-09-2016 14:55:00 24.6 C 56 % 15.24 C
469 02-09-2016 15:00:00 24.8 C 56 % 15.43 C
470 02-09-2016 15:05:00 24.8 C 58 % 15.98 C
471 02-09-2016 15:10:00 24.7 C 56 % 15.33 C
472 02-09-2016 15:15:00 24.6 C 55 % 14.96 C
473 02-09-2016 15:20:00 24.6 C 57 % 15.52 C
474 02-09-2016 15:25:00 24.6 C 57 % 15.52 C
475 02-09-2016 15:30:00 24.7 C 59 % 16.15 C
Sensor: Nr:Datum:Temp:Feuchte:Taupunkt:
Aussen-T/F 476 02-09-2016 15:35:00 24.8 C 56 % 15.43 C
477 02-09-2016 15:40:00 24.9 C 54 % 14.95 C
478 02-09-2016 15:45:00 25.1 C 56 % 15.71 C
479 02-09-2016 15:50:00 25.1 C 55 % 15.43 C
480 02-09-2016 15:55:00 25.2 C 55 % 15.52 C
481 02-09-2016 16:00:00 25.3 C 51 % 14.44 C
482 02-09-2016 16:05:00 25.7 C 54 % 15.7 C
483 02-09-2016 16:10:00 25.9 C 53 % 15.59 C
484 02-09-2016 16:15:00 25.9 C 58 % 17 C
485 02-09-2016 16:20:00 25.8 C 57 % 16.64 C
486 02-09-2016 16:25:00 25.8 C 54 % 15.79 C
487 02-09-2016 16:30:00 26 C 56 % 16.54 C
488 02-09-2016 16:35:00 26.2 C 55 % 16.45 C
489 02-09-2016 16:40:00 26.4 C 52 % 15.75 C
490 02-09-2016 16:45:00 26.8 C 50 % 15.51 C
491 02-09-2016 16:50:00 26.9 C 54 % 16.81 C
492 02-09-2016 16:55:00 27.2 C 52 % 16.49 C
493 02-09-2016 17:00:00 27.5 C 46 % 14.85 C
494 02-09-2016 17:05:00 27.7 C 48 % 15.69 C
495 02-09-2016 17:10:00 27.8 C 54 % 17.64 C
496 02-09-2016 17:15:00 27.6 C 53 % 17.16 C
497 02-09-2016 17:20:00 27.2 C 51 % 16.18 C
498 02-09-2016 17:25:00 26.7 C 55 % 16.91 C
499 02-09-2016 17:30:00 26.3 C 57 % 17.1 C
500 02-09-2016 17:35:00 25.8 C 58 % 16.91 C
Sensor: Nr:Datum:Temp:Feuchte:Taupunkt:
Aussen-T/F 501 02-09-2016 17:40:00 25.4 C 61 % 17.33 C
502 02-09-2016 17:45:00 25.1 C 62 % 17.31 C
503 02-09-2016 17:50:00 24.8 C 62 % 17.02 C
504 02-09-2016 17:55:00 24.6 C 62 % 16.84 C
505 02-09-2016 18:00:00 24.4 C 63 % 16.9 C
506 02-09-2016 18:05:00 24.3 C 64 % 17.05 C
507 02-09-2016 18:10:00 24.3 C 64 % 17.05 C
508 02-09-2016 18:15:00 24.2 C 65 % 17.2 C
509 02-09-2016 18:20:00 24.1 C 64 % 16.86 C
510 02-09-2016 18:25:00 24 C 64 % 16.77 C
511 02-09-2016 18:30:00 23.9 C 65 % 16.92 C
512 02-09-2016 18:35:00 23.8 C 65 % 16.83 C
513 02-09-2016 18:40:00 23.6 C 65 % 16.64 C
514 02-09-2016 18:45:00 23.3 C 66 % 16.59 C
515 02-09-2016 18:50:00 23.1 C 66 % 16.4 C
516 02-09-2016 18:55:00 22.8 C 66 % 16.12 C
517 02-09-2016 19:00:00 22.6 C 67 % 16.16 C
518 02-09-2016 19:05:00 22.3 C 67 % 15.88 C
519 02-09-2016 19:10:00 22.1 C 67 % 15.69 C
520 02-09-2016 19:15:00 21.9 C 67 % 15.5 C
521 02-09-2016 19:20:00 21.8 C 67 % 15.4 C
522 02-09-2016 19:25:00 21.6 C 67 % 15.21 C
523 02-09-2016 19:30:00 21.4 C 67 % 15.02 C
524 02-09-2016 19:35:00 21.3 C 68 % 15.16 C
525 02-09-2016 19:40:00 21.2 C 68 % 15.06 C
Sensor: Nr:Datum:Temp:Feuchte:Taupunkt:
Aussen-T/F 526 02-09-2016 19:45:00 21.2 C 68 % 15.06 C
527 02-09-2016 19:50:00 21.1 C 67 % 14.74 C
528 02-09-2016 19:55:00 21.1 C 67 % 14.74 C
529 02-09-2016 20:00:00 21 C 66 % 14.41 C
530 02-09-2016 20:05:00 20.9 C 66 % 14.31 C
531 02-09-2016 20:10:00 20.9 C 66 % 14.31 C
532 02-09-2016 20:15:00 20.9 C 67 % 14.55 C
533 02-09-2016 20:20:00 20.9 C 65 % 14.08 C
534 02-09-2016 20:25:00 20.8 C 68 % 14.68 C
535 02-09-2016 20:30:00 20.8 C 67 % 14.45 C
536 02-09-2016 20:35:00 20.7 C 68 % 14.58 C
537 02-09-2016 20:40:00 20.6 C 69 % 14.71 C
538 02-09-2016 20:45:00 20.4 C 68 % 14.3 C
539 02-09-2016 20:50:00 20.3 C 70 % 14.65 C
540 02-09-2016 20:55:00 20.2 C 69 % 14.33 C
541 02-09-2016 21:00:00 20.2 C 69 % 14.33 C
542 02-09-2016 21:05:00 20.2 C 70 % 14.56 C
543 02-09-2016 21:10:00 20.2 C 70 % 14.56 C
544 02-09-2016 21:15:00 20.1 C 70 % 14.46 C
545 02-09-2016 21:20:00 20 C 71 % 14.58 C
546 02-09-2016 21:25:00 19.9 C 71 % 14.49 C
547 02-09-2016 21:30:00 19.9 C 71 % 14.49 C
548 02-09-2016 21:35:00 19.9 C 70 % 14.27 C
549 02-09-2016 21:40:00 19.9 C 69 % 14.05 C
550 02-09-2016 21:45:00 19.9 C 70 % 14.27 C
Sensor: Nr:Datum:Temp:Feuchte:Taupunkt:
Aussen-T/F 551 02-09-2016 21:50:00 20 C 70 % 14.36 C
552 02-09-2016 21:55:00 20.1 C 71 % 14.68 C
553 02-09-2016 22:00:00 20.1 C 70 % 14.46 C
554 02-09-2016 22:05:00 20.1 C 71 % 14.68 C
555 02-09-2016 22:10:00 20.1 C 71 % 14.68 C
556 02-09-2016 22:15:00 20.1 C 72 % 14.9 C
557 02-09-2016 22:20:00 20.1 C 73 % 15.11 C
558 02-09-2016 22:25:00 20 C 73 % 15.01 C
559 02-09-2016 22:30:00 19.9 C 74 % 15.13 C
560 02-09-2016 22:35:00 19.9 C 74 % 15.13 C
561 02-09-2016 22:40:00 19.8 C 75 % 15.24 C
562 02-09-2016 22:45:00 19.8 C 76 % 15.45 C
563 02-09-2016 22:50:00 19.7 C 76 % 15.35 C
564 02-09-2016 22:55:00 19.7 C 76 % 15.35 C
565 02-09-2016 23:00:00 19.6 C 77 % 15.46 C
566 02-09-2016 23:05:00 19.6 C 77 % 15.46 C
567 02-09-2016 23:10:00 19.6 C 77 % 15.46 C
568 02-09-2016 23:15:00 19.5 C 78 % 15.56 C
569 02-09-2016 23:20:00 19.4 C 78 % 15.47 C
570 02-09-2016 23:25:00 19.3 C 78 % 15.37 C
571 02-09-2016 23:30:00 19.2 C 78 % 15.27 C
572 02-09-2016 23:35:00 19.1 C 80 % 15.57 C
573 02-09-2016 23:40:00 19 C 79 % 15.28 C
574 02-09-2016 23:45:00 18.9 C 80 % 15.38 C
575 02-09-2016 23:50:00 18.9 C 80 % 15.38 C
Sensor: Nr:Datum:Temp:Feuchte:Taupunkt:
Aussen-T/F 576 02-09-2016 23:55:00 18.8 C 81 % 15.47 C
577 03-09-2016 00:00:00 18.7 C 81 % 15.37 C
578 03-09-2016 00:05:00 18.7 C 81 % 15.37 C
579 03-09-2016 00:10:00 18.6 C 82 % 15.47 C
580 03-09-2016 00:15:00 18.6 C 82 % 15.47 C
581 03-09-2016 00:20:00 18.5 C 82 % 15.37 C
582 03-09-2016 00:25:00 18.4 C 82 % 15.27 C
583 03-09-2016 00:30:00 18.3 C 82 % 15.17 C
584 03-09-2016 00:35:00 18.2 C 82 % 15.08 C
585 03-09-2016 00:40:00 18.1 C 83 % 15.17 C
586 03-09-2016 00:45:00 18.1 C 83 % 15.17 C
587 03-09-2016 00:50:00 18 C 83 % 15.07 C
588 03-09-2016 00:55:00 18 C 84 % 15.26 C
589 03-09-2016 01:00:00 17.9 C 83 % 14.97 C
590 03-09-2016 01:05:00 17.9 C 84 % 15.16 C
591 03-09-2016 01:10:00 17.9 C 84 % 15.16 C
592 03-09-2016 01:15:00 17.9 C 84 % 15.16 C
593 03-09-2016 01:20:00 17.8 C 84 % 15.06 C
594 03-09-2016 01:25:00 17.8 C 84 % 15.06 C
595 03-09-2016 01:30:00 17.8 C 85 % 15.25 C
596 03-09-2016 01:35:00 17.8 C 84 % 15.06 C
597 03-09-2016 01:40:00 17.8 C 84 % 15.06 C
598 03-09-2016 01:45:00 17.8 C 84 % 15.06 C
599 03-09-2016 01:50:00 17.8 C 85 % 15.25 C
600 03-09-2016 01:55:00 17.8 C 86 % 15.43 C
Sensor: Nr:Datum:Temp:Feuchte:Taupunkt:
Aussen-T/F 601 03-09-2016 02:00:00 17.8 C 86 % 15.43 C
602 03-09-2016 02:05:00 17.7 C 86 % 15.33 C
603 03-09-2016 02:10:00 17.6 C 86 % 15.23 C
604 03-09-2016 02:15:00 17.5 C 86 % 15.13 C
605 03-09-2016 02:20:00 17.4 C 86 % 15.03 C
606 03-09-2016 02:25:00 17.4 C 86 % 15.03 C
607 03-09-2016 02:30:00 17.4 C 87 % 15.21 C
608 03-09-2016 02:35:00 17.4 C 87 % 15.21 C
609 03-09-2016 02:40:00 17.3 C 87 % 15.12 C
610 03-09-2016 02:45:00 17.3 C 87 % 15.12 C
611 03-09-2016 02:50:00 17.4 C 86 % 15.03 C
612 03-09-2016 02:55:00 17.4 C 86 % 15.03 C
613 03-09-2016 03:00:00 17.5 C 86 % 15.13 C
614 03-09-2016 03:05:00 17.5 C 86 % 15.13 C
615 03-09-2016 03:10:00 17.5 C 86 % 15.13 C
616 03-09-2016 03:15:00 17.4 C 86 % 15.03 C
617 03-09-2016 03:20:00 17.4 C 86 % 15.03 C
618 03-09-2016 03:25:00 17.4 C 86 % 15.03 C
619 03-09-2016 03:30:00 17.4 C 86 % 15.03 C
620 03-09-2016 03:35:00 17.3 C 85 % 14.76 C
621 03-09-2016 03:40:00 17.2 C 85 % 14.66 C
622 03-09-2016 03:45:00 17.1 C 85 % 14.56 C
623 03-09-2016 03:50:00 16.8 C 86 % 14.45 C
624 03-09-2016 03:55:00 16.7 C 86 % 14.35 C
625 03-09-2016 04:00:00 16.7 C 87 % 14.53 C
Sensor: Nr:Datum:Temp:Feuchte:Taupunkt:
Aussen-T/F 626 03-09-2016 04:05:00 16.7 C 87 % 14.53 C
627 03-09-2016 04:10:00 16.7 C 87 % 14.53 C
628 03-09-2016 04:15:00 16.6 C 87 % 14.43 C
629 03-09-2016 04:20:00 16.5 C 87 % 14.33 C
630 03-09-2016 04:25:00 16.4 C 88 % 14.41 C
631 03-09-2016 04:30:00 16.4 C 88 % 14.41 C
632 03-09-2016 04:35:00 16.4 C 88 % 14.41 C
633 03-09-2016 04:40:00 16.4 C 88 % 14.41 C
634 03-09-2016 04:45:00 16.3 C 88 % 14.31 C
635 03-09-2016 04:50:00 16.3 C 89 % 14.48 C
636 03-09-2016 04:55:00 16.2 C 89 % 14.39 C
637 03-09-2016 05:00:00 16.2 C 89 % 14.39 C
638 03-09-2016 05:05:00 16.2 C 89 % 14.39 C
639 03-09-2016 05:10:00 16.1 C 89 % 14.29 C
640 03-09-2016 05:15:00 16 C 89 % 14.19 C
641 03-09-2016 05:20:00 15.9 C 89 % 14.09 C
642 03-09-2016 05:25:00 15.8 C 89 % 13.99 C
643 03-09-2016 05:30:00 15.7 C 89 % 13.89 C
644 03-09-2016 05:35:00 15.6 C 89 % 13.79 C
645 03-09-2016 05:40:00 15.6 C 89 % 13.79 C
646 03-09-2016 05:45:00 15.4 C 89 % 13.6 C
647 03-09-2016 05:50:00 15.3 C 89 % 13.5 C
648 03-09-2016 05:55:00 15.2 C 90 % 13.57 C
649 03-09-2016 06:00:00 15.1 C 90 % 13.47 C
650 03-09-2016 06:05:00 15.1 C 90 % 13.47 C
Sensor: Nr:Datum:Temp:Feuchte:Taupunkt:
Aussen-T/F 651 03-09-2016 06:10:00 14.9 C 90 % 13.28 C
652 03-09-2016 06:15:00 14.9 C 91 % 13.44 C
653 03-09-2016 06:20:00 14.8 C 91 % 13.35 C
654 03-09-2016 06:25:00 14.8 C 91 % 13.35 C
655 03-09-2016 06:30:00 14.7 C 91 % 13.25 C
656 03-09-2016 06:35:00 14.6 C 91 % 13.15 C
657 03-09-2016 06:40:00 14.5 C 91 % 13.05 C
658 03-09-2016 06:45:00 14.4 C 92 % 13.12 C
659 03-09-2016 06:50:00 14.4 C 92 % 13.12 C
660 03-09-2016 06:55:00 14.3 C 92 % 13.02 C
661 03-09-2016 07:00:00 14.3 C 92 % 13.02 C
662 03-09-2016 07:05:00 14.3 C 92 % 13.02 C
663 03-09-2016 07:10:00 14.3 C 92 % 13.02 C
664 03-09-2016 07:15:00 14.3 C 93 % 13.18 C
665 03-09-2016 07:20:00 14.3 C 93 % 13.18 C
666 03-09-2016 07:25:00 14.3 C 93 % 13.18 C
667 03-09-2016 07:30:00 14.4 C 93 % 13.28 C
668 03-09-2016 07:35:00 14.4 C 93 % 13.28 C
669 03-09-2016 07:40:00 14.6 C 93 % 13.48 C
670 03-09-2016 07:45:00 14.7 C 93 % 13.58 C
671 03-09-2016 07:50:00 14.7 C 93 % 13.58 C
672 03-09-2016 07:55:00 14.8 C 94 % 13.84 C
673 03-09-2016 08:00:00 14.9 C 94 % 13.94 C
674 03-09-2016 08:05:00 15.1 C 93 % 13.98 C
675 03-09-2016 08:10:00 15.2 C 93 % 14.08 C
Sensor: Nr:Datum:Temp:Feuchte:Taupunkt:
Aussen-T/F 676 03-09-2016 08:15:00 15.2 C 93 % 14.08 C
677 03-09-2016 08:20:00 15.3 C 93 % 14.18 C
678 03-09-2016 08:25:00 15.3 C 93 % 14.18 C
679 03-09-2016 08:30:00 15.4 C 93 % 14.27 C
680 03-09-2016 08:35:00 15.5 C 93 % 14.37 C
681 03-09-2016 08:40:00 15.6 C 93 % 14.47 C
682 03-09-2016 08:45:00 15.7 C 92 % 14.4 C
683 03-09-2016 08:50:00 15.8 C 92 % 14.5 C
684 03-09-2016 08:55:00 15.9 C 91 % 14.43 C
685 03-09-2016 09:00:00 16 C 91 % 14.53 C
686 03-09-2016 09:05:00 16.1 C 91 % 14.63 C
687 03-09-2016 09:10:00 16.3 C 91 % 14.83 C
688 03-09-2016 09:15:00 16.3 C 90 % 14.66 C
689 03-09-2016 09:20:00 16.4 C 90 % 14.76 C
690 03-09-2016 09:25:00 16.5 C 89 % 14.68 C
691 03-09-2016 09:30:00 16.6 C 90 % 14.95 C
692 03-09-2016 09:35:00 16.7 C 90 % 15.05 C
693 03-09-2016 09:40:00 16.8 C 89 % 14.98 C
694 03-09-2016 09:45:00 16.8 C 90 % 15.15 C
695 03-09-2016 09:50:00 17 C 90 % 15.35 C
696 03-09-2016 09:55:00 17.1 C 90 % 15.45 C
697 03-09-2016 10:00:00 17.2 C 91 % 15.72 C
698 03-09-2016 10:05:00 17.3 C 90 % 15.64 C
699 03-09-2016 10:10:00 17.3 C 89 % 15.47 C
700 03-09-2016 10:15:00 17.5 C 90 % 15.84 C
Sensor: Nr:Datum:Temp:Feuchte:Taupunkt:
Aussen-T/F 701 03-09-2016 10:20:00 17.6 C 89 % 15.77 C
702 03-09-2016 10:25:00 17.8 C 89 % 15.96 C
703 03-09-2016 10:30:00 18 C 88 % 15.98 C
704 03-09-2016 10:35:00 18.2 C 88 % 16.18 C
705 03-09-2016 10:40:00 18.4 C 87 % 16.2 C
706 03-09-2016 10:45:00 18.7 C 84 % 15.94 C
707 03-09-2016 10:50:00 19 C 84 % 16.24 C
708 03-09-2016 10:55:00 19.3 C 83 % 16.34 C
709 03-09-2016 11:00:00 19.6 C 81 % 16.25 C
710 03-09-2016 11:05:00 19.9 C 80 % 16.35 C
711 03-09-2016 11:10:00 20.2 C 81 % 16.84 C
712 03-09-2016 11:15:00 20.5 C 81 % 17.13 C
713 03-09-2016 11:20:00 20.8 C 81 % 17.42 C
714 03-09-2016 11:25:00 20.9 C 78 % 16.92 C
715 03-09-2016 11:30:00 21.1 C 80 % 17.51 C
716 03-09-2016 11:35:00 21.2 C 79 % 17.41 C
717 03-09-2016 11:40:00 21.3 C 80 % 17.71 C
718 03-09-2016 11:45:00 21.4 C 81 % 18 C
719 03-09-2016 11:50:00 21.6 C 80 % 18 C
720 03-09-2016 11:55:00 21.8 C 80 % 18.2 C
721 03-09-2016 12:00:00 21.9 C 73 % 16.84 C
722 03-09-2016 12:05:00 22.2 C 71 % 16.69 C
723 03-09-2016 12:10:00 22.4 C 69 % 16.43 C
724 03-09-2016 12:15:00 22.6 C 68 % 16.39 C
725 03-09-2016 12:20:00 22.7 C 72 % 17.39 C
Sensor: Nr:Datum:Temp:Feuchte:Taupunkt:
Aussen-T/F 726 03-09-2016 12:25:00 22.8 C 69 % 16.82 C
727 03-09-2016 12:30:00 23.1 C 75 % 18.43 C
728 03-09-2016 12:35:00 23.3 C 72 % 17.97 C
729 03-09-2016 12:40:00 23.4 C 69 % 17.39 C
730 03-09-2016 12:45:00 23.7 C 67 % 17.21 C
731 03-09-2016 12:50:00 23.8 C 67 % 17.3 C
732 03-09-2016 12:55:00 23.9 C 66 % 17.16 C
733 03-09-2016 13:00:00 23.9 C 67 % 17.4 C
734 03-09-2016 13:05:00 24 C 66 % 17.26 C
735 03-09-2016 13:10:00 24.1 C 66 % 17.35 C
736 03-09-2016 13:15:00 24.1 C 65 % 17.11 C
737 03-09-2016 13:20:00 24.2 C 64 % 16.96 C
738 03-09-2016 13:25:00 24.2 C 66 % 17.45 C
739 03-09-2016 13:30:00 24.3 C 62 % 16.55 C
740 03-09-2016 13:35:00 24.5 C 64 % 17.24 C
741 03-09-2016 13:40:00 24.6 C 59 % 16.06 C
742 03-09-2016 13:45:00 24.8 C 67 % 18.25 C
743 03-09-2016 13:50:00 24.8 C 62 % 17.02 C
744 03-09-2016 13:55:00 24.9 C 68 % 18.59 C
745 03-09-2016 14:00:00 24.9 C 60 % 16.6 C
746 03-09-2016 14:05:00 25.2 C 56 % 15.8 C
747 03-09-2016 14:10:00 25.5 C 55 % 15.8 C
748 03-09-2016 14:15:00 25.7 C 57 % 16.54 C
749 03-09-2016 14:20:00 25.9 C 57 % 16.73 C
750 03-09-2016 14:25:00 26.1 C 56 % 16.64 C
Sensor: Nr:Datum:Temp:Feuchte:Taupunkt:
Aussen-T/F 751 03-09-2016 14:30:00 26.3 C 54 % 16.25 C
752 03-09-2016 14:35:00 26.4 C 52 % 15.75 C
753 03-09-2016 14:40:00 26.5 C 53 % 16.14 C
754 03-09-2016 14:45:00 26.6 C 51 % 15.63 C
755 03-09-2016 14:50:00 26.6 C 53 % 16.23 C
756 03-09-2016 14:55:00 26.7 C 52 % 16.03 C
757 03-09-2016 15:00:00 26.8 C 51 % 15.82 C
758 03-09-2016 15:05:00 26.8 C 56 % 17.29 C
759 03-09-2016 15:10:00 26.9 C 53 % 16.51 C
760 03-09-2016 15:15:00 26.9 C 50 % 15.6 C
761 03-09-2016 15:20:00 27 C 50 % 15.69 C
762 03-09-2016 15:25:00 26.9 C 51 % 15.91 C
763 03-09-2016 15:30:00 26.9 C 52 % 16.21 C
764 03-09-2016 15:35:00 26.9 C 52 % 16.21 C
765 03-09-2016 15:40:00 26.8 C 53 % 16.42 C
766 03-09-2016 15:45:00 26.9 C 52 % 16.21 C
767 03-09-2016 15:50:00 27 C 49 % 15.38 C
768 03-09-2016 15:55:00 27.1 C 49 % 15.47 C
769 03-09-2016 16:00:00 27.2 C 50 % 15.87 C
770 03-09-2016 16:05:00 27.2 C 49 % 15.56 C
771 03-09-2016 16:10:00 27.2 C 52 % 16.49 C
772 03-09-2016 16:15:00 27.3 C 48 % 15.33 C
773 03-09-2016 16:20:00 27.4 C 50 % 16.06 C
774 03-09-2016 16:25:00 27.5 C 52 % 16.76 C
775 03-09-2016 16:30:00 27.7 C 49 % 16.01 C
Sensor: Nr:Datum:Temp:Feuchte:Taupunkt:
Aussen-T/F 776 03-09-2016 16:35:00 28.2 C 47 % 15.82 C
777 03-09-2016 16:40:00 28.6 C 46 % 15.85 C
778 03-09-2016 16:45:00 28.7 C 46 % 15.94 C
779 03-09-2016 16:50:00 28.9 C 49 % 17.11 C
780 03-09-2016 16:55:00 29.1 C 44 % 15.6 C
781 03-09-2016 17:00:00 29.2 C 47 % 16.73 C
782 03-09-2016 17:05:00 29.4 C 43 % 15.51 C
783 03-09-2016 17:10:00 29.6 C 43 % 15.69 C
784 03-09-2016 17:15:00 29.7 C 42 % 15.42 C
785 03-09-2016 17:20:00 29.8 C 46 % 16.93 C
786 03-09-2016 17:25:00 29.8 C 42 % 15.51 C
787 03-09-2016 17:30:00 29.7 C 41 % 15.04 C
788 03-09-2016 17:35:00 29.4 C 42 % 15.15 C
789 03-09-2016 17:40:00 29.4 C 45 % 16.23 C
790 03-09-2016 17:45:00 29.3 C 47 % 16.82 C
791 03-09-2016 17:50:00 29.2 C 48 % 17.06 C
792 03-09-2016 17:55:00 29 C 46 % 16.21 C
793 03-09-2016 18:00:00 28.8 C 47 % 16.36 C
794 03-09-2016 18:05:00 28.9 C 47 % 16.45 C
795 03-09-2016 18:10:00 29.1 C 46 % 16.3 C
796 03-09-2016 18:15:00 29.3 C 47 % 16.82 C
797 03-09-2016 18:20:00 29.4 C 45 % 16.23 C
798 03-09-2016 18:25:00 29.4 C 50 % 17.89 C
799 03-09-2016 18:30:00 29.1 C 45 % 15.95 C
800 03-09-2016 18:35:00 28.9 C 48 % 16.79 C
Sensor: Nr:Datum:Temp:Feuchte:Taupunkt:
Aussen-T/F 801 03-09-2016 18:40:00 28.6 C 51 % 17.47 C
802 03-09-2016 18:45:00 28.1 C 53 % 17.62 C
803 03-09-2016 18:50:00 27.4 C 54 % 17.27 C
804 03-09-2016 18:55:00 26.8 C 55 % 17 C
805 03-09-2016 19:00:00 26.6 C 54 % 16.53 C
806 03-09-2016 19:05:00 26.7 C 52 % 16.03 C
807 03-09-2016 19:10:00 26.9 C 56 % 17.38 C
808 03-09-2016 19:15:00 26.9 C 54 % 16.81 C
809 03-09-2016 19:20:00 26.8 C 55 % 17 C
810 03-09-2016 19:25:00 26.5 C 55 % 16.72 C
811 03-09-2016 19:30:00 26.2 C 55 % 16.45 C
812 03-09-2016 19:35:00 25.8 C 57 % 16.64 C
813 03-09-2016 19:40:00 25.4 C 58 % 16.54 C
814 03-09-2016 19:45:00 25 C 59 % 16.43 C
815 03-09-2016 19:50:00 24.6 C 60 % 16.32 C
816 03-09-2016 19:55:00 24.2 C 62 % 16.46 C
817 03-09-2016 20:00:00 23.8 C 62 % 16.08 C
818 03-09-2016 20:05:00 23.4 C 63 % 15.96 C
819 03-09-2016 20:10:00 23.1 C 65 % 16.16 C
820 03-09-2016 20:15:00 22.8 C 66 % 16.12 C
821 03-09-2016 20:20:00 22.5 C 66 % 15.83 C
822 03-09-2016 20:25:00 22.3 C 67 % 15.88 C
823 03-09-2016 20:30:00 22.1 C 67 % 15.69 C
824 03-09-2016 20:35:00 22 C 67 % 15.59 C
825 03-09-2016 20:40:00 21.9 C 67 % 15.5 C
Sensor: Nr:Datum:Temp:Feuchte:Taupunkt:
Aussen-T/F 826 03-09-2016 20:45:00 21.9 C 67 % 15.5 C
827 03-09-2016 20:50:00 21.9 C 67 % 15.5 C
828 03-09-2016 20:55:00 21.8 C 68 % 15.63 C
829 03-09-2016 21:00:00 21.7 C 69 % 15.77 C
830 03-09-2016 21:05:00 21.6 C 68 % 15.44 C
831 03-09-2016 21:10:00 21.5 C 68 % 15.35 C
832 03-09-2016 21:15:00 21.4 C 69 % 15.48 C
833 03-09-2016 21:20:00 21.2 C 67 % 14.83 C
834 03-09-2016 21:25:00 21.2 C 69 % 15.29 C
835 03-09-2016 21:30:00 21.1 C 69 % 15.19 C
836 03-09-2016 21:35:00 21 C 69 % 15.1 C
837 03-09-2016 21:40:00 20.9 C 69 % 15 C
838 03-09-2016 21:45:00 20.8 C 69 % 14.91 C
839 03-09-2016 21:50:00 20.6 C 70 % 14.94 C
840 03-09-2016 21:55:00 20.4 C 70 % 14.75 C
841 03-09-2016 22:00:00 20.2 C 70 % 14.56 C
842 03-09-2016 22:05:00 20 C 70 % 14.36 C
843 03-09-2016 22:10:00 19.9 C 70 % 14.27 C
844 03-09-2016 22:15:00 19.7 C 70 % 14.08 C
845 03-09-2016 22:20:00 19.6 C 70 % 13.98 C
846 03-09-2016 22:25:00 19.6 C 70 % 13.98 C
847 03-09-2016 22:30:00 19.4 C 71 % 14.01 C
848 03-09-2016 22:35:00 19.3 C 71 % 13.91 C
849 03-09-2016 22:40:00 19.2 C 71 % 13.82 C
850 03-09-2016 22:45:00 19.2 C 71 % 13.82 C
Sensor: Nr:Datum:Temp:Feuchte:Taupunkt:
Aussen-T/F 851 03-09-2016 22:50:00 19.1 C 71 % 13.72 C
852 03-09-2016 22:55:00 19 C 71 % 13.63 C
853 03-09-2016 23:00:00 18.9 C 71 % 13.53 C
854 03-09-2016 23:05:00 18.9 C 72 % 13.74 C
855 03-09-2016 23:10:00 18.8 C 72 % 13.65 C
856 03-09-2016 23:15:00 18.8 C 72 % 13.65 C
857 03-09-2016 23:20:00 18.9 C 73 % 13.96 C
858 03-09-2016 23:25:00 18.9 C 72 % 13.74 C
859 03-09-2016 23:30:00 18.9 C 73 % 13.96 C
860 03-09-2016 23:35:00 18.8 C 73 % 13.86 C
861 03-09-2016 23:40:00 18.7 C 74 % 13.97 C
862 03-09-2016 23:45:00 18.6 C 74 % 13.88 C
863 03-09-2016 23:50:00 18.5 C 75 % 13.99 C
864 03-09-2016 23:55:00 18.4 C 75 % 13.89 C
865 04-09-2016 00:00:00 18.3 C 75 % 13.79 C
866 04-09-2016 00:05:00 18.2 C 75 % 13.7 C
867 04-09-2016 00:10:00 18.2 C 76 % 13.9 C
868 04-09-2016 00:15:00 18.2 C 75 % 13.7 C
869 04-09-2016 00:20:00 18.1 C 74 % 13.4 C
870 04-09-2016 00:25:00 18.1 C 75 % 13.6 C
871 04-09-2016 00:30:00 18.1 C 75 % 13.6 C
872 04-09-2016 00:35:00 18 C 75 % 13.51 C
873 04-09-2016 00:40:00 17.9 C 76 % 13.61 C
874 04-09-2016 00:45:00 17.8 C 76 % 13.52 C
875 04-09-2016 00:50:00 17.6 C 76 % 13.32 C
Sensor: Nr:Datum:Temp:Feuchte:Taupunkt:
Aussen-T/F 876 04-09-2016 00:55:00 17.5 C 77 % 13.43 C
877 04-09-2016 01:00:00 17.3 C 77 % 13.23 C
878 04-09-2016 01:05:00 17.2 C 78 % 13.33 C
879 04-09-2016 01:10:00 17.1 C 79 % 13.43 C
880 04-09-2016 01:15:00 16.9 C 79 % 13.24 C
881 04-09-2016 01:20:00 16.8 C 79 % 13.14 C
882 04-09-2016 01:25:00 16.8 C 80 % 13.33 C
883 04-09-2016 01:30:00 16.7 C 80 % 13.23 C
884 04-09-2016 01:35:00 16.7 C 80 % 13.23 C
885 04-09-2016 01:40:00 16.6 C 80 % 13.14 C
886 04-09-2016 01:45:00 16.6 C 81 % 13.33 C
887 04-09-2016 01:50:00 16.6 C 81 % 13.33 C
888 04-09-2016 01:55:00 16.4 C 81 % 13.13 C
889 04-09-2016 02:00:00 16.4 C 81 % 13.13 C
890 04-09-2016 02:05:00 16.3 C 81 % 13.04 C
891 04-09-2016 02:10:00 16.2 C 82 % 13.13 C
892 04-09-2016 02:15:00 16.1 C 82 % 13.03 C
893 04-09-2016 02:20:00 16.1 C 82 % 13.03 C
894 04-09-2016 02:25:00 16 C 82 % 12.93 C
895 04-09-2016 02:30:00 15.9 C 83 % 13.02 C
896 04-09-2016 02:35:00 15.9 C 83 % 13.02 C
897 04-09-2016 02:40:00 15.9 C 83 % 13.02 C
898 04-09-2016 02:45:00 15.9 C 83 % 13.02 C
899 04-09-2016 02:50:00 15.9 C 83 % 13.02 C
900 04-09-2016 02:55:00 15.9 C 84 % 13.2 C
Sensor: Nr:Datum:Temp:Feuchte:Taupunkt:
Aussen-T/F 901 04-09-2016 03:00:00 15.9 C 84 % 13.2 C
902 04-09-2016 03:05:00 15.9 C 84 % 13.2 C
903 04-09-2016 03:10:00 15.9 C 84 % 13.2 C
904 04-09-2016 03:15:00 15.9 C 84 % 13.2 C
905 04-09-2016 03:20:00 15.8 C 84 % 13.1 C
906 04-09-2016 03:25:00 15.8 C 84 % 13.1 C
907 04-09-2016 03:30:00 15.8 C 84 % 13.1 C
908 04-09-2016 03:35:00 15.8 C 84 % 13.1 C
909 04-09-2016 03:40:00 15.8 C 84 % 13.1 C
910 04-09-2016 03:45:00 15.9 C 84 % 13.2 C
911 04-09-2016 03:50:00 15.9 C 84 % 13.2 C
912 04-09-2016 03:55:00 16.1 C 84 % 13.4 C
913 04-09-2016 04:00:00 16.2 C 84 % 13.5 C
914 04-09-2016 04:05:00 16.2 C 84 % 13.5 C
915 04-09-2016 04:10:00 16.3 C 85 % 13.77 C
916 04-09-2016 04:15:00 16.4 C 84 % 13.69 C
917 04-09-2016 04:20:00 16.6 C 82 % 13.52 C
918 04-09-2016 04:25:00 16.8 C 81 % 13.52 C
919 04-09-2016 04:30:00 16.8 C 81 % 13.52 C
920 04-09-2016 04:35:00 16.8 C 81 % 13.52 C
921 04-09-2016 04:40:00 16.8 C 81 % 13.52 C
922 04-09-2016 04:45:00 16.8 C 82 % 13.71 C
923 04-09-2016 04:50:00 16.6 C 82 % 13.52 C
924 04-09-2016 04:55:00 16.5 C 82 % 13.42 C
925 04-09-2016 05:00:00 16.4 C 83 % 13.51 C
Sensor: Nr:Datum:Temp:Feuchte:Taupunkt:
Aussen-T/F 926 04-09-2016 05:05:00 16.3 C 84 % 13.59 C
927 04-09-2016 05:10:00 16.3 C 84 % 13.59 C
928 04-09-2016 05:15:00 16.3 C 84 % 13.59 C
929 04-09-2016 05:20:00 16.2 C 85 % 13.68 C
930 04-09-2016 05:25:00 16.2 C 85 % 13.68 C
931 04-09-2016 05:30:00 16.2 C 84 % 13.5 C
932 04-09-2016 05:35:00 16.2 C 84 % 13.5 C
933 04-09-2016 05:40:00 16.3 C 84 % 13.59 C
934 04-09-2016 05:45:00 16.4 C 84 % 13.69 C
935 04-09-2016 05:50:00 16.5 C 84 % 13.79 C
936 04-09-2016 05:55:00 16.6 C 84 % 13.89 C
937 04-09-2016 06:00:00 16.6 C 84 % 13.89 C
938 04-09-2016 06:05:00 16.6 C 84 % 13.89 C
939 04-09-2016 06:10:00 16.5 C 83 % 13.6 C
940 04-09-2016 06:15:00 16.4 C 84 % 13.69 C
941 04-09-2016 06:20:00 16.4 C 84 % 13.69 C
942 04-09-2016 06:25:00 16.5 C 82 % 13.42 C
943 04-09-2016 06:30:00 16.7 C 81 % 13.43 C
944 04-09-2016 06:35:00 16.8 C 81 % 13.52 C
945 04-09-2016 06:40:00 16.9 C 82 % 13.81 C
946 04-09-2016 06:45:00 16.9 C 83 % 14 C
947 04-09-2016 06:50:00 16.8 C 82 % 13.71 C
948 04-09-2016 06:55:00 16.8 C 82 % 13.71 C
949 04-09-2016 07:00:00 16.8 C 82 % 13.71 C
950 04-09-2016 07:05:00 16.8 C 83 % 13.9 C
Sensor: Nr:Datum:Temp:Feuchte:Taupunkt:
Aussen-T/F 951 04-09-2016 07:10:00 16.8 C 83 % 13.9 C
952 04-09-2016 07:15:00 16.7 C 83 % 13.8 C
953 04-09-2016 07:20:00 16.7 C 83 % 13.8 C
954 04-09-2016 07:25:00 16.8 C 83 % 13.9 C
955 04-09-2016 07:30:00 16.8 C 83 % 13.9 C
956 04-09-2016 07:35:00 16.8 C 82 % 13.71 C
957 04-09-2016 07:40:00 17 C 82 % 13.91 C
958 04-09-2016 07:45:00 17.2 C 81 % 13.91 C
959 04-09-2016 07:50:00 17.4 C 81 % 14.11 C
960 04-09-2016 07:55:00 17.4 C 82 % 14.3 C
961 04-09-2016 08:00:00 17.4 C 83 % 14.48 C
962 04-09-2016 08:05:00 17.4 C 86 % 15.03 C
963 04-09-2016 08:10:00 17.2 C 87 % 15.02 C
964 04-09-2016 08:15:00 17.1 C 88 % 15.1 C
965 04-09-2016 08:20:00 16.9 C 89 % 15.08 C
966 04-09-2016 08:25:00 16.8 C 90 % 15.15 C
967 04-09-2016 08:30:00 16.8 C 91 % 15.32 C
968 04-09-2016 08:35:00 16.7 C 91 % 15.22 C
969 04-09-2016 08:40:00 16.7 C 91 % 15.22 C
970 04-09-2016 08:45:00 16.7 C 92 % 15.39 C
971 04-09-2016 08:50:00 16.8 C 92 % 15.49 C
972 04-09-2016 08:55:00 16.8 C 92 % 15.49 C
973 04-09-2016 09:00:00 16.8 C 92 % 15.49 C
974 04-09-2016 09:05:00 16.8 C 93 % 15.66 C
975 04-09-2016 09:10:00 16.8 C 93 % 15.66 C
Sensor: Nr:Datum:Temp:Feuchte:Taupunkt:
Aussen-T/F 976 04-09-2016 09:15:00 16.8 C 93 % 15.66 C
977 04-09-2016 09:20:00 16.8 C 93 % 15.66 C
978 04-09-2016 09:25:00 16.8 C 93 % 15.66 C
979 04-09-2016 09:30:00 16.8 C 93 % 15.66 C
980 04-09-2016 09:35:00 16.8 C 93 % 15.66 C
981 04-09-2016 09:40:00 16.7 C 94 % 15.73 C
982 04-09-2016 09:45:00 16.7 C 94 % 15.73 C
983 04-09-2016 09:50:00 16.6 C 94 % 15.63 C
984 04-09-2016 09:55:00 16.6 C 94 % 15.63 C
985 04-09-2016 10:00:00 16.7 C 94 % 15.73 C
986 04-09-2016 10:05:00 16.7 C 94 % 15.73 C
987 04-09-2016 10:10:00 16.8 C 95 % 15.99 C
988 04-09-2016 10:15:00 16.8 C 95 % 15.99 C
989 04-09-2016 10:20:00 16.9 C 95 % 16.09 C
990 04-09-2016 10:25:00 17.1 C 95 % 16.29 C
991 04-09-2016 10:30:00 17.1 C 95 % 16.29 C
992 04-09-2016 10:35:00 17.1 C 95 % 16.29 C
993 04-09-2016 10:40:00 17 C 94 % 16.03 C
994 04-09-2016 10:45:00 16.9 C 94 % 15.93 C
995 04-09-2016 10:50:00 17.1 C 94 % 16.13 C
996 04-09-2016 10:55:00 17.2 C 94 % 16.23 C
997 04-09-2016 11:00:00 17.3 C 94 % 16.33 C
998 04-09-2016 11:05:00 17.4 C 94 % 16.42 C
999 04-09-2016 11:10:00 17.6 C 94 % 16.62 C
1000 04-09-2016 11:15:00 17.6 C 94 % 16.62 C
Sensor: Nr:Datum:Temp:Feuchte:Taupunkt:
Aussen-T/F 1001 04-09-2016 11:20:00 17.7 C 93 % 16.55 C
1002 04-09-2016 11:25:00 17.8 C 93 % 16.65 C
1003 04-09-2016 11:30:00 17.9 C 92 % 16.58 C
1004 04-09-2016 11:35:00 18.1 C 92 % 16.78 C
1005 04-09-2016 11:40:00 18.2 C 93 % 17.05 C
1006 04-09-2016 11:45:00 18.2 C 92 % 16.88 C
1007 04-09-2016 11:50:00 18.3 C 91 % 16.81 C
1008 04-09-2016 11:55:00 18.4 C 92 % 17.08 C
1009 04-09-2016 12:00:00 18.6 C 91 % 17.1 C
1010 04-09-2016 12:05:00 18.8 C 89 % 16.95 C
1011 04-09-2016 12:10:00 19.2 C 88 % 17.16 C
1012 04-09-2016 12:15:00 19.5 C 89 % 17.64 C
1013 04-09-2016 12:20:00 19.8 C 87 % 17.57 C
1014 04-09-2016 12:25:00 20.2 C 85 % 17.6 C
1015 04-09-2016 12:30:00 20.4 C 85 % 17.79 C
1016 04-09-2016 12:35:00 20.5 C 84 % 17.7 C
1017 04-09-2016 12:40:00 20.5 C 85 % 17.89 C
1018 04-09-2016 12:45:00 20.3 C 83 % 17.32 C
1019 04-09-2016 12:50:00 20.2 C 84 % 17.41 C
1020 04-09-2016 12:55:00 20.2 C 84 % 17.41 C
1021 04-09-2016 13:00:00 20.2 C 84 % 17.41 C
1022 04-09-2016 13:05:00 20.3 C 84 % 17.51 C
1023 04-09-2016 13:10:00 20.2 C 84 % 17.41 C
1024 04-09-2016 13:15:00 20.1 C 84 % 17.31 C
1025 04-09-2016 13:20:00 19.9 C 86 % 17.49 C
Sensor: Nr:Datum:Temp:Feuchte:Taupunkt:
Aussen-T/F 1026 04-09-2016 13:25:00 19.8 C 87 % 17.57 C
1027 04-09-2016 13:30:00 19.6 C 88 % 17.56 C
1028 04-09-2016 13:35:00 19.7 C 90 % 18.01 C
1029 04-09-2016 13:40:00 19.6 C 90 % 17.91 C
1030 04-09-2016 13:45:00 19.7 C 91 % 18.19 C
1031 04-09-2016 13:50:00 19.8 C 91 % 18.29 C
1032 04-09-2016 13:55:00 19.8 C 92 % 18.46 C
1033 04-09-2016 14:00:00 19.9 C 91 % 18.39 C
1034 04-09-2016 14:05:00 20 C 89 % 18.13 C
1035 04-09-2016 14:10:00 20.1 C 89 % 18.23 C
1036 04-09-2016 14:15:00 20.2 C 89 % 18.33 C
1037 04-09-2016 14:20:00 20.3 C 88 % 18.25 C
1038 04-09-2016 14:25:00 20.4 C 88 % 18.34 C
1039 04-09-2016 14:30:00 20.5 C 88 % 18.44 C
1040 04-09-2016 14:35:00 20.6 C 88 % 18.54 C
1041 04-09-2016 14:40:00 20.7 C 86 % 18.27 C
1042 04-09-2016 14:45:00 20.7 C 85 % 18.09 C
1043 04-09-2016 14:50:00 20.9 C 85 % 18.28 C
1044 04-09-2016 14:55:00 21 C 83 % 18 C
1045 04-09-2016 15:00:00 20.9 C 83 % 17.9 C
1046 04-09-2016 15:05:00 20.9 C 84 % 18.09 C
1047 04-09-2016 15:10:00 20.9 C 83 % 17.9 C
1048 04-09-2016 15:15:00 20.9 C 83 % 17.9 C
1049 04-09-2016 15:20:00 20.9 C 82 % 17.71 C
1050 04-09-2016 15:25:00 20.8 C 83 % 17.81 C
Sensor: Nr:Datum:Temp:Feuchte:Taupunkt:
Aussen-T/F 1051 04-09-2016 15:30:00 20.7 C 83 % 17.71 C
1052 04-09-2016 15:35:00 20.4 C 84 % 17.61 C
1053 04-09-2016 15:40:00 20.3 C 85 % 17.7 C
1054 04-09-2016 15:45:00 20.1 C 85 % 17.5 C
1055 04-09-2016 15:50:00 20.1 C 87 % 17.87 C
1056 04-09-2016 15:55:00 20.2 C 86 % 17.78 C
1057 04-09-2016 16:00:00 20.7 C 86 % 18.27 C
1058 04-09-2016 16:05:00 21.1 C 83 % 18.1 C
1059 04-09-2016 16:10:00 21.2 C 83 % 18.2 C
1060 04-09-2016 16:15:00 21.4 C 82 % 18.2 C
1061 04-09-2016 16:20:00 21.6 C 81 % 18.2 C
1062 04-09-2016 16:25:00 21.6 C 80 % 18 C
1063 04-09-2016 16:30:00 21.5 C 80 % 17.9 C
1064 04-09-2016 16:35:00 21.5 C 80 % 17.9 C
1065 04-09-2016 16:40:00 21.6 C 80 % 18 C
1066 04-09-2016 16:45:00 21.7 C 79 % 17.9 C
1067 04-09-2016 16:50:00 21.6 C 79 % 17.8 C
1068 04-09-2016 16:55:00 21.4 C 80 % 17.81 C
1069 04-09-2016 17:00:00 21.3 C 81 % 17.91 C
1070 04-09-2016 17:05:00 21.2 C 81 % 17.81 C
1071 04-09-2016 17:10:00 21.1 C 81 % 17.71 C
1072 04-09-2016 17:15:00 21.1 C 81 % 17.71 C
1073 04-09-2016 17:20:00 21.1 C 81 % 17.71 C
1074 04-09-2016 17:25:00 21.2 C 75 % 16.59 C
1075 04-09-2016 17:30:00 21.2 C 70 % 15.51 C
Sensor: Nr:Datum:Temp:Feuchte:Taupunkt:
Aussen-T/F 1076 04-09-2016 17:35:00 21.3 C 68 % 15.16 C
1077 04-09-2016 17:40:00 21.3 C 68 % 15.16 C
1078 04-09-2016 17:45:00 21.3 C 68 % 15.16 C
1079 04-09-2016 17:50:00 21.2 C 67 % 14.83 C
1080 04-09-2016 17:55:00 21.2 C 68 % 15.06 C
1081 04-09-2016 18:00:00 21.1 C 66 % 14.5 C
1082 04-09-2016 18:05:00 21 C 68 % 14.87 C
1083 04-09-2016 18:10:00 21 C 64 % 13.93 C
1084 04-09-2016 18:15:00 20.9 C 65 % 14.08 C
1085 04-09-2016 18:20:00 20.9 C 65 % 14.08 C
1086 04-09-2016 18:25:00 20.8 C 65 % 13.98 C
1087 04-09-2016 18:30:00 20.7 C 64 % 13.65 C
1088 04-09-2016 18:35:00 20.6 C 65 % 13.79 C
1089 04-09-2016 18:40:00 20.4 C 65 % 13.6 C
1090 04-09-2016 18:45:00 20.4 C 66 % 13.84 C
1091 04-09-2016 18:50:00 20.3 C 67 % 13.97 C
1092 04-09-2016 18:55:00 20.2 C 67 % 13.88 C
1093 04-09-2016 19:00:00 20.1 C 67 % 13.78 C
1094 04-09-2016 19:05:00 20 C 68 % 13.92 C
1095 04-09-2016 19:10:00 19.9 C 69 % 14.05 C
1096 04-09-2016 19:15:00 19.8 C 67 % 13.5 C
1097 04-09-2016 19:20:00 19.7 C 66 % 13.17 C
1098 04-09-2016 19:25:00 19.6 C 66 % 13.08 C
1099 04-09-2016 19:30:00 19.6 C 66 % 13.08 C
1100 04-09-2016 19:35:00 19.6 C 66 % 13.08 C
Sensor: Nr:Datum:Temp:Feuchte:Taupunkt:
Aussen-T/F 1101 04-09-2016 19:40:00 19.6 C 66 % 13.08 C
1102 04-09-2016 19:45:00 19.4 C 68 % 13.34 C
1103 04-09-2016 19:50:00 19.3 C 68 % 13.25 C
1104 04-09-2016 19:55:00 19.2 C 68 % 13.15 C
1105 04-09-2016 20:00:00 19.2 C 68 % 13.15 C
1106 04-09-2016 20:05:00 19.1 C 68 % 13.06 C
1107 04-09-2016 20:10:00 19.1 C 68 % 13.06 C
1108 04-09-2016 20:15:00 19.1 C 69 % 13.28 C
1109 04-09-2016 20:20:00 19.1 C 69 % 13.28 C
1110 04-09-2016 20:25:00 19 C 69 % 13.19 C
1111 04-09-2016 20:30:00 18.9 C 70 % 13.31 C
1112 04-09-2016 20:35:00 18.8 C 68 % 12.77 C
1113 04-09-2016 20:40:00 18.8 C 69 % 13 C
1114 04-09-2016 20:45:00 18.8 C 69 % 13 C
1115 04-09-2016 20:50:00 18.8 C 69 % 13 C
1116 04-09-2016 20:55:00 18.8 C 69 % 13 C
1117 04-09-2016 21:00:00 18.8 C 70 % 13.22 C
1118 04-09-2016 21:05:00 18.8 C 70 % 13.22 C
1119 04-09-2016 21:10:00 18.7 C 70 % 13.12 C
1120 04-09-2016 21:15:00 18.7 C 70 % 13.12 C
1121 04-09-2016 21:20:00 18.6 C 71 % 13.24 C
1122 04-09-2016 21:25:00 18.4 C 72 % 13.26 C
1123 04-09-2016 21:30:00 18.3 C 73 % 13.38 C
1124 04-09-2016 21:35:00 18.1 C 75 % 13.6 C
1125 04-09-2016 21:40:00 17.9 C 76 % 13.61 C
Sensor: Nr:Datum:Temp:Feuchte:Taupunkt:
Aussen-T/F 1126 04-09-2016 21:45:00 17.8 C 76 % 13.52 C
1127 04-09-2016 21:50:00 17.7 C 77 % 13.62 C
1128 04-09-2016 21:55:00 17.6 C 78 % 13.72 C
1129 04-09-2016 22:00:00 17.4 C 79 % 13.72 C
1130 04-09-2016 22:05:00 17.3 C 79 % 13.63 C
1131 04-09-2016 22:10:00 17.3 C 80 % 13.82 C
1132 04-09-2016 22:15:00 17.2 C 80 % 13.72 C
1133 04-09-2016 22:20:00 17.2 C 81 % 13.91 C
1134 04-09-2016 22:25:00 17.2 C 81 % 13.91 C
1135 04-09-2016 22:30:00 17.1 C 81 % 13.82 C
1136 04-09-2016 22:35:00 17.1 C 81 % 13.82 C
1137 04-09-2016 22:40:00 17.1 C 81 % 13.82 C
1138 04-09-2016 22:45:00 17.1 C 82 % 14 C
1139 04-09-2016 22:50:00 17 C 81 % 13.72 C
1140 04-09-2016 22:55:00 17 C 82 % 13.91 C
1141 04-09-2016 23:00:00 17 C 82 % 13.91 C
1142 04-09-2016 23:05:00 16.9 C 82 % 13.81 C
1143 04-09-2016 23:10:00 16.9 C 82 % 13.81 C
1144 04-09-2016 23:15:00 16.9 C 82 % 13.81 C
1145 04-09-2016 23:20:00 16.8 C 83 % 13.9 C
1146 04-09-2016 23:25:00 16.7 C 83 % 13.8 C
1147 04-09-2016 23:30:00 16.6 C 83 % 13.7 C
1148 04-09-2016 23:35:00 16.5 C 84 % 13.79 C
1149 04-09-2016 23:40:00 16.4 C 84 % 13.69 C
1150 04-09-2016 23:45:00 16.3 C 84 % 13.59 C
Sensor: Nr:Datum:Temp:Feuchte:Taupunkt:
Aussen-T/F 1151 04-09-2016 23:50:00 16.2 C 85 % 13.68 C
1152 04-09-2016 23:55:00 16.2 C 86 % 13.86 C
1153 05-09-2016 00:00:00 16.2 C 86 % 13.86 C
1154 05-09-2016 00:05:00 16.2 C 86 % 13.86 C
1155 05-09-2016 00:10:00 16.2 C 85 % 13.68 C
1156 05-09-2016 00:15:00 16.2 C 85 % 13.68 C
1157 05-09-2016 00:20:00 16.3 C 85 % 13.77 C
1158 05-09-2016 00:25:00 16.3 C 85 % 13.77 C
1159 05-09-2016 00:30:00 16.3 C 84 % 13.59 C
1160 05-09-2016 00:35:00 16.3 C 85 % 13.77 C
1161 05-09-2016 00:40:00 16.2 C 85 % 13.68 C
1162 05-09-2016 00:45:00 16.2 C 85 % 13.68 C
1163 05-09-2016 00:50:00 16.2 C 85 % 13.68 C
1164 05-09-2016 00:55:00 16.3 C 85 % 13.77 C
1165 05-09-2016 01:00:00 16.3 C 84 % 13.59 C
1166 05-09-2016 01:05:00 16.3 C 84 % 13.59 C
1167 05-09-2016 01:10:00 16.3 C 84 % 13.59 C
1168 05-09-2016 01:15:00 16.3 C 85 % 13.77 C
1169 05-09-2016 01:20:00 16.2 C 84 % 13.5 C
1170 05-09-2016 01:25:00 16.1 C 85 % 13.58 C
1171 05-09-2016 01:30:00 16 C 85 % 13.48 C
1172 05-09-2016 01:35:00 15.9 C 85 % 13.38 C
1173 05-09-2016 01:40:00 15.8 C 85 % 13.28 C
1174 05-09-2016 01:45:00 15.8 C 85 % 13.28 C
1175 05-09-2016 01:50:00 15.8 C 86 % 13.46 C
Sensor: Nr:Datum:Temp:Feuchte:Taupunkt:
Aussen-T/F 1176 05-09-2016 01:55:00 15.7 C 86 % 13.37 C
1177 05-09-2016 02:00:00 15.7 C 86 % 13.37 C
1178 05-09-2016 02:05:00 15.6 C 86 % 13.27 C
1179 05-09-2016 02:10:00 15.4 C 87 % 13.25 C
1180 05-09-2016 02:15:00 15.4 C 87 % 13.25 C
1181 05-09-2016 02:20:00 15.3 C 87 % 13.15 C
1182 05-09-2016 02:25:00 15.2 C 88 % 13.23 C
1183 05-09-2016 02:30:00 15.2 C 88 % 13.23 C
1184 05-09-2016 02:35:00 15.2 C 88 % 13.23 C
1185 05-09-2016 02:40:00 15.3 C 89 % 13.5 C
1186 05-09-2016 02:45:00 15.4 C 88 % 13.42 C
1187 05-09-2016 02:50:00 15.4 C 88 % 13.42 C
1188 05-09-2016 02:55:00 15.6 C 87 % 13.45 C
1189 05-09-2016 03:00:00 15.7 C 87 % 13.54 C
1190 05-09-2016 03:05:00 15.7 C 87 % 13.54 C
1191 05-09-2016 03:10:00 15.8 C 87 % 13.64 C
1192 05-09-2016 03:15:00 15.8 C 86 % 13.46 C
1193 05-09-2016 03:20:00 15.9 C 85 % 13.38 C
1194 05-09-2016 03:25:00 15.9 C 85 % 13.38 C
1195 05-09-2016 03:30:00 16 C 85 % 13.48 C
1196 05-09-2016 03:35:00 16 C 85 % 13.48 C
1197 05-09-2016 03:40:00 16 C 85 % 13.48 C
1198 05-09-2016 03:45:00 16 C 85 % 13.48 C
1199 05-09-2016 03:50:00 15.9 C 85 % 13.38 C
1200 05-09-2016 03:55:00 16 C 85 % 13.48 C
Sensor: Nr:Datum:Temp:Feuchte:Taupunkt:
Aussen-T/F 1201 05-09-2016 04:00:00 15.9 C 85 % 13.38 C
1202 05-09-2016 04:05:00 15.9 C 85 % 13.38 C
1203 05-09-2016 04:10:00 15.8 C 85 % 13.28 C
1204 05-09-2016 04:15:00 15.7 C 85 % 13.19 C
1205 05-09-2016 04:20:00 15.6 C 85 % 13.09 C
1206 05-09-2016 04:25:00 15.5 C 86 % 13.17 C
1207 05-09-2016 04:30:00 15.4 C 86 % 13.07 C
1208 05-09-2016 04:35:00 15.3 C 86 % 12.97 C
1209 05-09-2016 04:40:00 15.2 C 87 % 13.05 C
1210 05-09-2016 04:45:00 15.1 C 87 % 12.95 C
1211 05-09-2016 04:50:00 15.1 C 88 % 13.13 C
1212 05-09-2016 04:55:00 15 C 88 % 13.03 C
1213 05-09-2016 05:00:00 15 C 88 % 13.03 C
1214 05-09-2016 05:05:00 15 C 89 % 13.2 C
1215 05-09-2016 05:10:00 15 C 89 % 13.2 C
1216 05-09-2016 05:15:00 15 C 89 % 13.2 C
1217 05-09-2016 05:20:00 15 C 89 % 13.2 C
1218 05-09-2016 05:25:00 15 C 89 % 13.2 C
1219 05-09-2016 05:30:00 15 C 89 % 13.2 C
1220 05-09-2016 05:35:00 15.1 C 89 % 13.3 C
1221 05-09-2016 05:40:00 15.1 C 89 % 13.3 C
1222 05-09-2016 05:45:00 15.1 C 89 % 13.3 C
1223 05-09-2016 05:50:00 15.1 C 89 % 13.3 C
1224 05-09-2016 05:55:00 15.1 C 89 % 13.3 C
1225 05-09-2016 06:00:00 15.2 C 89 % 13.4 C
Sensor: Nr:Datum:Temp:Feuchte:Taupunkt:
Aussen-T/F 1226 05-09-2016 06:05:00 15.2 C 89 % 13.4 C
1227 05-09-2016 06:10:00 15.2 C 89 % 13.4 C
1228 05-09-2016 06:15:00 15.3 C 88 % 13.33 C
1229 05-09-2016 06:20:00 15.3 C 88 % 13.33 C
1230 05-09-2016 06:25:00 15.3 C 88 % 13.33 C
1231 05-09-2016 06:30:00 15.3 C 88 % 13.33 C
1232 05-09-2016 06:35:00 15.3 C 88 % 13.33 C
1233 05-09-2016 06:40:00 15.3 C 88 % 13.33 C
1234 05-09-2016 06:45:00 15.4 C 88 % 13.42 C
1235 05-09-2016 06:50:00 15.4 C 88 % 13.42 C
1236 05-09-2016 06:55:00 15.4 C 88 % 13.42 C
1237 05-09-2016 07:00:00 15.5 C 88 % 13.52 C
1238 05-09-2016 07:05:00 15.5 C 88 % 13.52 C
1239 05-09-2016 07:10:00 15.6 C 87 % 13.45 C
1240 05-09-2016 07:15:00 15.6 C 87 % 13.45 C
1241 05-09-2016 07:20:00 15.7 C 87 % 13.54 C
1242 05-09-2016 07:25:00 15.7 C 88 % 13.72 C
1243 05-09-2016 07:30:00 15.7 C 88 % 13.72 C
1244 05-09-2016 07:35:00 15.7 C 88 % 13.72 C
1245 05-09-2016 07:40:00 15.7 C 88 % 13.72 C
1246 05-09-2016 07:45:00 15.7 C 88 % 13.72 C
1247 05-09-2016 07:50:00 15.7 C 88 % 13.72 C
1248 05-09-2016 07:55:00 15.7 C 88 % 13.72 C
1249 05-09-2016 08:00:00 15.7 C 88 % 13.72 C
1250 05-09-2016 08:05:00 15.7 C 88 % 13.72 C
Sensor: Nr:Datum:Temp:Feuchte:Taupunkt:
Aussen-T/F 1251 05-09-2016 08:10:00 15.7 C 88 % 13.72 C
1252 05-09-2016 08:15:00 15.8 C 88 % 13.82 C
1253 05-09-2016 08:20:00 15.8 C 88 % 13.82 C
1254 05-09-2016 08:25:00 15.9 C 88 % 13.92 C
1255 05-09-2016 08:30:00 16 C 88 % 14.01 C
1256 05-09-2016 08:35:00 16.1 C 88 % 14.11 C
1257 05-09-2016 08:40:00 16.2 C 87 % 14.03 C
1258 05-09-2016 08:45:00 16.3 C 87 % 14.13 C
1259 05-09-2016 08:50:00 16.4 C 87 % 14.23 C
1260 05-09-2016 08:55:00 16.4 C 87 % 14.23 C
1261 05-09-2016 09:00:00 16.5 C 87 % 14.33 C
1262 05-09-2016 09:05:00 16.5 C 87 % 14.33 C
1263 05-09-2016 09:10:00 16.5 C 87 % 14.33 C
1264 05-09-2016 09:15:00 16.6 C 87 % 14.43 C
1265 05-09-2016 09:20:00 16.6 C 87 % 14.43 C
1266 05-09-2016 09:25:00 16.6 C 86 % 14.25 C
1267 05-09-2016 09:30:00 16.6 C 87 % 14.43 C
1268 05-09-2016 09:35:00 16.6 C 88 % 14.6 C
1269 05-09-2016 09:40:00 16.7 C 89 % 14.88 C
1270 05-09-2016 09:45:00 16.6 C 89 % 14.78 C
1271 05-09-2016 09:50:00 16.6 C 89 % 14.78 C
1272 05-09-2016 09:55:00 16.6 C 90 % 14.95 C
1273 05-09-2016 10:00:00 16.6 C 90 % 14.95 C
1274 05-09-2016 10:05:00 16.5 C 90 % 14.85 C
1275 05-09-2016 10:10:00 16.5 C 90 % 14.85 C
Sensor: Nr:Datum:Temp:Feuchte:Taupunkt:
Aussen-T/F 1276 05-09-2016 10:15:00 16.4 C 90 % 14.76 C
1277 05-09-2016 10:20:00 16.5 C 90 % 14.85 C
1278 05-09-2016 10:25:00 16.6 C 90 % 14.95 C
1279 05-09-2016 10:30:00 16.7 C 88 % 14.7 C
1280 05-09-2016 10:35:00 16.8 C 89 % 14.98 C
1281 05-09-2016 10:40:00 17.1 C 88 % 15.1 C
1282 05-09-2016 10:45:00 17.3 C 87 % 15.12 C
1283 05-09-2016 10:50:00 17.6 C 85 % 15.05 C
1284 05-09-2016 10:55:00 17.8 C 83 % 14.88 C
1285 05-09-2016 11:00:00 17.9 C 84 % 15.16 C
1286 05-09-2016 11:05:00 18.1 C 83 % 15.17 C
1287 05-09-2016 11:10:00 18.2 C 83 % 15.27 C
1288 05-09-2016 11:15:00 18.3 C 82 % 15.17 C
1289 05-09-2016 11:20:00 18.4 C 82 % 15.27 C
1290 05-09-2016 11:25:00 18.4 C 81 % 15.08 C
1291 05-09-2016 11:30:00 18.4 C 80 % 14.89 C
1292 05-09-2016 11:35:00 18.3 C 80 % 14.79 C
1293 05-09-2016 11:40:00 18.4 C 81 % 15.08 C
1294 05-09-2016 11:45:00 18.6 C 81 % 15.28 C
1295 05-09-2016 11:50:00 18.7 C 79 % 14.99 C
1296 05-09-2016 11:55:00 18.7 C 77 % 14.59 C
1297 05-09-2016 12:00:00 18.7 C 77 % 14.59 C
1298 05-09-2016 12:05:00 18.8 C 79 % 15.08 C
1299 05-09-2016 12:10:00 18.9 C 78 % 14.98 C
1300 05-09-2016 12:15:00 19.1 C 77 % 14.97 C
Sensor: Nr:Datum:Temp:Feuchte:Taupunkt:
Aussen-T/F 1301 05-09-2016 12:20:00 19.2 C 74 % 14.46 C
1302 05-09-2016 12:25:00 19.3 C 74 % 14.55 C
1303 05-09-2016 12:30:00 19.3 C 75 % 14.76 C
1304 05-09-2016 12:35:00 19.4 C 74 % 14.65 C
1305 05-09-2016 12:40:00 19.5 C 72 % 14.32 C
1306 05-09-2016 12:45:00 19.7 C 71 % 14.3 C
1307 05-09-2016 12:50:00 19.9 C 71 % 14.49 C
1308 05-09-2016 12:55:00 19.9 C 70 % 14.27 C
1309 05-09-2016 13:00:00 20 C 69 % 14.14 C
1310 05-09-2016 13:05:00 20 C 68 % 13.92 C
1311 05-09-2016 13:10:00 20.1 C 69 % 14.24 C
1312 05-09-2016 13:15:00 20.1 C 68 % 14.01 C
1313 05-09-2016 13:20:00 20.1 C 68 % 14.01 C
1314 05-09-2016 13:25:00 20.1 C 68 % 14.01 C
1315 05-09-2016 13:30:00 20.1 C 69 % 14.24 C
1316 05-09-2016 13:35:00 20.1 C 68 % 14.01 C
1317 05-09-2016 13:40:00 20.1 C 68 % 14.01 C
1318 05-09-2016 13:45:00 20.2 C 67 % 13.88 C
1319 05-09-2016 13:50:00 20.3 C 67 % 13.97 C
1320 05-09-2016 13:55:00 20.4 C 67 % 14.07 C
1321 05-09-2016 14:00:00 20.6 C 67 % 14.26 C
1322 05-09-2016 14:05:00 20.6 C 68 % 14.49 C
1323 05-09-2016 14:10:00 20.7 C 67 % 14.36 C
1324 05-09-2016 14:15:00 20.8 C 66 % 14.22 C
1325 05-09-2016 14:20:00 20.7 C 64 % 13.65 C
Sensor: Nr:Datum:Temp:Feuchte:Taupunkt:
Aussen-T/F 1326 05-09-2016 14:25:00 20.6 C 66 % 14.03 C
1327 05-09-2016 14:30:00 20.4 C 65 % 13.6 C
1328 05-09-2016 14:35:00 20.5 C 65 % 13.7 C
1329 05-09-2016 14:40:00 20.6 C 67 % 14.26 C
1330 05-09-2016 14:45:00 20.8 C 66 % 14.22 C
1331 05-09-2016 14:50:00 20.9 C 65 % 14.08 C
1332 05-09-2016 14:55:00 20.9 C 64 % 13.84 C
1333 05-09-2016 15:00:00 20.9 C 65 % 14.08 C
1334 05-09-2016 15:05:00 20.9 C 66 % 14.31 C
1335 05-09-2016 15:10:00 20.9 C 65 % 14.08 C
1336 05-09-2016 15:15:00 20.9 C 64 % 13.84 C
1337 05-09-2016 15:20:00 20.9 C 65 % 14.08 C
1338 05-09-2016 15:25:00 20.9 C 66 % 14.31 C
1339 05-09-2016 15:30:00 21 C 66 % 14.41 C
1340 05-09-2016 15:35:00 21.1 C 65 % 14.27 C
1341 05-09-2016 15:40:00 21.3 C 64 % 14.22 C
1342 05-09-2016 15:45:00 21.4 C 64 % 14.31 C
1343 05-09-2016 15:50:00 21.4 C 62 % 13.82 C
1344 05-09-2016 15:55:00 21.4 C 61 % 13.57 C
1345 05-09-2016 16:00:00 21.4 C 63 % 14.07 C
1346 05-09-2016 16:05:00 21.6 C 64 % 14.5 C
1347 05-09-2016 16:10:00 21.7 C 63 % 14.35 C
1348 05-09-2016 16:15:00 21.8 C 63 % 14.45 C
1349 05-09-2016 16:20:00 21.8 C 63 % 14.45 C
1350 05-09-2016 16:25:00 22.1 C 62 % 14.48 C
Sensor: Nr:Datum:Temp:Feuchte:Taupunkt:
Aussen-T/F 1351 05-09-2016 16:30:00 22.2 C 61 % 14.32 C
1352 05-09-2016 16:35:00 22.3 C 60 % 14.16 C
1353 05-09-2016 16:40:00 22.5 C 60 % 14.35 C
1354 05-09-2016 16:45:00 22.7 C 59 % 14.28 C
1355 05-09-2016 16:50:00 22.3 C 60 % 14.16 C
1356 05-09-2016 16:55:00 22.1 C 61 % 14.23 C
1357 05-09-2016 17:00:00 21.8 C 61 % 13.95 C
1358 05-09-2016 17:05:00 21.8 C 58 % 13.17 C
1359 05-09-2016 17:10:00 21.9 C 59 % 13.53 C
1360 05-09-2016 17:15:00 22.2 C 57 % 13.28 C
1361 05-09-2016 17:20:00 22.5 C 58 % 13.83 C
1362 05-09-2016 17:25:00 22.6 C 56 % 13.38 C
1363 05-09-2016 17:30:00 22.8 C 57 % 13.84 C
1364 05-09-2016 17:35:00 23.1 C 57 % 14.12 C
1365 05-09-2016 17:40:00 23.2 C 57 % 14.21 C
1366 05-09-2016 17:45:00 23.3 C 57 % 14.31 C
1367 05-09-2016 17:50:00 23.5 C 57 % 14.49 C
1368 05-09-2016 17:55:00 23.5 C 56 % 14.22 C
1369 05-09-2016 18:00:00 23.2 C 56 % 13.94 C
1370 05-09-2016 18:05:00 22.9 C 57 % 13.93 C
1371 05-09-2016 18:10:00 22.9 C 57 % 13.93 C
1372 05-09-2016 18:15:00 23 C 57 % 14.03 C
1373 05-09-2016 18:20:00 23.2 C 57 % 14.21 C
1374 05-09-2016 18:25:00 23.2 C 56 % 13.94 C
1375 05-09-2016 18:30:00 23.1 C 59 % 14.65 C
Sensor: Nr:Datum:Temp:Feuchte:Taupunkt:
Aussen-T/F 1376 05-09-2016 18:35:00 23.1 C 57 % 14.12 C
1377 05-09-2016 18:40:00 22.9 C 62 % 15.23 C
1378 05-09-2016 18:45:00 22.8 C 64 % 15.64 C
1379 05-09-2016 18:50:00 22.6 C 65 % 15.69 C
1380 05-09-2016 18:55:00 22.3 C 66 % 15.64 C
1381 05-09-2016 19:00:00 21.9 C 67 % 15.5 C
1382 05-09-2016 19:05:00 21.6 C 68 % 15.44 C
1383 05-09-2016 19:10:00 21.2 C 70 % 15.51 C
1384 05-09-2016 19:15:00 20.8 C 72 % 15.57 C
1385 05-09-2016 19:20:00 20.6 C 72 % 15.38 C
1386 05-09-2016 19:25:00 20.3 C 73 % 15.3 C
1387 05-09-2016 19:30:00 20.1 C 75 % 15.53 C
1388 05-09-2016 19:35:00 19.9 C 75 % 15.34 C
1389 05-09-2016 19:40:00 19.8 C 75 % 15.24 C
1390 05-09-2016 19:45:00 19.6 C 75 % 15.05 C
1391 05-09-2016 19:50:00 19.4 C 76 % 15.06 C
1392 05-09-2016 19:55:00 19.3 C 76 % 14.97 C
1393 05-09-2016 20:00:00 19.1 C 76 % 14.77 C
1394 05-09-2016 20:05:00 18.8 C 77 % 14.68 C
1395 05-09-2016 20:10:00 18.6 C 77 % 14.49 C
1396 05-09-2016 20:15:00 18.4 C 77 % 14.3 C
1397 05-09-2016 20:20:00 18.3 C 77 % 14.2 C
1398 05-09-2016 20:25:00 18.2 C 78 % 14.3 C
1399 05-09-2016 20:30:00 18 C 78 % 14.11 C
1400 05-09-2016 20:35:00 17.9 C 78 % 14.01 C
Sensor: Nr:Datum:Temp:Feuchte:Taupunkt:
Aussen-T/F 1401 05-09-2016 20:40:00 17.7 C 79 % 14.01 C
1402 05-09-2016 20:45:00 17.6 C 80 % 14.11 C
1403 05-09-2016 20:50:00 17.4 C 80 % 13.92 C
1404 05-09-2016 20:55:00 17.2 C 81 % 13.91 C
1405 05-09-2016 21:00:00 17.1 C 82 % 14 C
1406 05-09-2016 21:05:00 16.9 C 82 % 13.81 C
1407 05-09-2016 21:10:00 16.7 C 83 % 13.8 C
1408 05-09-2016 21:15:00 16.6 C 83 % 13.7 C
1409 05-09-2016 21:20:00 16.5 C 84 % 13.79 C
1410 05-09-2016 21:25:00 16.4 C 85 % 13.87 C
1411 05-09-2016 21:30:00 16.3 C 85 % 13.77 C
1412 05-09-2016 21:35:00 16.3 C 85 % 13.77 C
1413 05-09-2016 21:40:00 16.2 C 85 % 13.68 C
1414 05-09-2016 21:45:00 16.1 C 85 % 13.58 C
1415 05-09-2016 21:50:00 15.9 C 86 % 13.56 C
1416 05-09-2016 21:55:00 15.8 C 87 % 13.64 C
1417 05-09-2016 22:00:00 15.6 C 86 % 13.27 C
1418 05-09-2016 22:05:00 15.4 C 87 % 13.25 C
1419 05-09-2016 22:10:00 15.3 C 87 % 13.15 C
1420 05-09-2016 22:15:00 15.3 C 88 % 13.33 C
1421 05-09-2016 22:20:00 15.2 C 88 % 13.23 C
1422 05-09-2016 22:25:00 15.1 C 88 % 13.13 C
1423 05-09-2016 22:30:00 15 C 88 % 13.03 C
1424 05-09-2016 22:35:00 14.9 C 88 % 12.93 C
1425 05-09-2016 22:40:00 14.8 C 88 % 12.83 C
Sensor: Nr:Datum:Temp:Feuchte:Taupunkt:
Aussen-T/F 1426 05-09-2016 22:45:00 14.7 C 88 % 12.73 C
1427 05-09-2016 22:50:00 14.6 C 89 % 12.81 C
1428 05-09-2016 22:55:00 14.6 C 89 % 12.81 C
1429 05-09-2016 23:00:00 14.5 C 89 % 12.71 C
1430 05-09-2016 23:05:00 14.4 C 89 % 12.61 C
1431 05-09-2016 23:10:00 14.3 C 89 % 12.51 C
1432 05-09-2016 23:15:00 14.2 C 90 % 12.58 C
1433 05-09-2016 23:20:00 14.2 C 90 % 12.58 C
1434 05-09-2016 23:25:00 14.1 C 90 % 12.49 C
1435 05-09-2016 23:30:00 14.1 C 91 % 12.65 C
1436 05-09-2016 23:35:00 14 C 91 % 12.56 C
1437 05-09-2016 23:40:00 13.9 C 91 % 12.46 C
1438 05-09-2016 23:45:00 13.8 C 91 % 12.36 C
1439 05-09-2016 23:50:00 13.8 C 91 % 12.36 C
1440 05-09-2016 23:55:00 13.7 C 91 % 12.26 C

Legende:
   Min
   Max


Maximal/Minimal-Werte vom 01.09.2016 - 05.09.2016

Sensor Min Max Avg
Temp
(Aussen-T/F)
13 °C
02-09-2016  06:55:00
29.8 °C
03-09-2016  17:20:00
19.01 °C
Feuchte
(Aussen-T/F)
41 %
03-09-2016  17:30:00
96 %
02-09-2016  09:40:00
77.82 %
Taupunkt
(Aussen-T/F)
12.06 C
02-09-2016  06:55:00
18.59 C
03-09-2016  13:55:00
14.74 C

Die Daten stammen von einer Davis Vantage Pro 2 Wetter-Station und werden unter Linux mit der Software wview2wettercgi und aufbereitet. Alle Angaben erfolgen ohne Gewähr für ihre Vollständigkeit oder Richtigkeit.
Kontakt: Rainer Krienke krienke@uni-koblenz.de . Meine Webseiten an der Uni Koblenz oder privat.
Version: $Revision: 0.78 $